Observation data for Sterling City on 10/18/2019      Previous  Date       Current Mesonet Observations  Soil Data  Daily Summary Page  Observations in Plain Language
KSC1 180500Z 11004KT 15/01 A2992 RMK A01 T01450012  RH  041%=      5-min Rain = 0
KSC1 180501Z 11004KT 15/01 A2992 RMK A01 T01450013  RH  041%=      5-min Rain = 0
KSC1 180502Z 11004KT 14/01 A2992 RMK A01 T01440012  RH  041%=      5-min Rain = 0
KSC1 180503Z 11004KT 14/01 A2992 RMK A01 T01440013  RH  041%=      5-min Rain = 0
KSC1 180504Z 11003KT 14/01 A2992 RMK A01 T01430013  RH  041%=      5-min Rain = 0
KSC1 180505Z 10003KT 14/01 A2992 RMK A01 T01430013  RH  041%=      5-min Rain = 0
KSC1 180506Z 10003KT 14/01 A2992 RMK A01 T01430013  RH  041%=      5-min Rain = 0
KSC1 180507Z 10003KT 14/01 A2992 RMK A01 T01420013  RH  041%=      5-min Rain = 0
KSC1 180508Z 09003KT 14/01 A2992 RMK A01 T01420013  RH  041%=      5-min Rain = 0
KSC1 180509Z 09004KT 14/01 A2992 RMK A01 T01430013  RH  041%=      5-min Rain = 0
KSC1 180510Z 09004KT 14/01 A2992 RMK A01 T01420013  RH  041%=      5-min Rain = 0
KSC1 180511Z 09004KT 14/01 A2992 RMK A01 T01420013  RH  041%=      5-min Rain = 0
KSC1 180512Z 09004KT 14/01 A2992 RMK A01 T01420013  RH  042%=      5-min Rain = 0
KSC1 180513Z 09004KT 14/01 A2991 RMK A01 T01410013  RH  042%=      5-min Rain = 0
KSC1 180514Z 08003KT 14/01 A2991 RMK A01 T01390012  RH  042%=      5-min Rain = 0
KSC1 180515Z 07003KT 14/01 A2991 RMK A01 T01380011  RH  042%=      5-min Rain = 0
KSC1 180516Z 08003KT 14/01 A2991 RMK A01 T01360011  RH  043%=      5-min Rain = 0
KSC1 180517Z 07003KT 13/01 A2991 RMK A01 T01340011  RH  043%=      5-min Rain = 0
KSC1 180518Z 07003KT 13/01 A2991 RMK A01 T01330011  RH  043%=      5-min Rain = 0
KSC1 180519Z 07003KT 13/01 A2991 RMK A01 T01320010  RH  043%=      5-min Rain = 0
KSC1 180520Z 07003KT 13/01 A2991 RMK A01 T01300010  RH  044%=      5-min Rain = 0
KSC1 180521Z 07004KT 13/01 A2991 RMK A01 T01290009  RH  044%=      5-min Rain = 0
KSC1 180522Z 07004KT 13/01 A2991 RMK A01 T01280010  RH  044%=      5-min Rain = 0
KSC1 180523Z 07003KT 13/01 A2991 RMK A01 T01270009  RH  044%=      5-min Rain = 0
KSC1 180524Z 07004KT 13/01 A2991 RMK A01 T01270009  RH  045%=      5-min Rain = 0
KSC1 180525Z 08004KT 13/01 A2991 RMK A01 T01260009  RH  045%=      5-min Rain = 0
KSC1 180526Z 08004KT 13/01 A2991 RMK A01 T01260010  RH  045%=      5-min Rain = 0
KSC1 180527Z 07004KT 13/01 A2991 RMK A01 T01260009  RH  045%=      5-min Rain = 0
KSC1 180528Z 07004KT 13/01 A2991 RMK A01 T01260009  RH  045%=      5-min Rain = 0
KSC1 180529Z 07004KT 13/01 A2991 RMK A01 T01250009  RH  045%=      5-min Rain = 0
KSC1 180530Z 07004KT 12/01 A2991 RMK A01 T01240009  RH  045%=      5-min Rain = 0
KSC1 180531Z 07004KT 12/01 A2991 RMK A01 T01240009  RH  045%=      5-min Rain = 0
KSC1 180532Z 07004KT 12/01 A2991 RMK A01 T01230009  RH  046%=      5-min Rain = 0
KSC1 180533Z 07005KT 12/01 A2991 RMK A01 T01230009  RH  046%=      5-min Rain = 0
KSC1 180534Z 07005KT 12/01 A2991 RMK A01 T01230009  RH  046%=      5-min Rain = 0
KSC1 180535Z 07005KT 12/01 A2991 RMK A01 T01220009  RH  046%=      5-min Rain = 0
KSC1 180536Z 07004KT 12/01 A2991 RMK A01 T01220009  RH  046%=      5-min Rain = 0
KSC1 180537Z 07004KT 12/01 A2991 RMK A01 T01210009  RH  046%=      5-min Rain = 0
KSC1 180538Z 07003KT 12/01 A2991 RMK A01 T01210009  RH  046%=      5-min Rain = 0
KSC1 180539Z 07003KT 12/01 A2991 RMK A01 T01200009  RH  046%=      5-min Rain = 0
KSC1 180540Z 06004KT 12/01 A2991 RMK A01 T01200009  RH  047%=      5-min Rain = 0
KSC1 180541Z 06003KT 12/01 A299 RMK A01 T01200009  RH  047%=      5-min Rain = 0
KSC1 180542Z 05003KT 12/01 A2991 RMK A01 T01200010  RH  047%=      5-min Rain = 0
KSC1 180543Z 05003KT 12/01 A2991 RMK A01 T01190009  RH  047%=      5-min Rain = 0
KSC1 180544Z 05003KT 12/01 A2991 RMK A01 T01190010  RH  047%=      5-min Rain = 0
KSC1 180545Z 05003KT 12/01 A2991 RMK A01 T01180010  RH  047%=      5-min Rain = 0
KSC1 180546Z 04003KT 12/01 A2991 RMK A01 T01190010  RH  047%=      5-min Rain = 0
KSC1 180547Z 04003KT 12/01 A2991 RMK A01 T01180009  RH  047%=      5-min Rain = 0
KSC1 180548Z 05003KT 12/01 A299 RMK A01 T01180009  RH  047%=      5-min Rain = 0
KSC1 180549Z 04004KT 12/01 A299 RMK A01 T01180010  RH  047%=      5-min Rain = 0
KSC1 180550Z 04003KT 12/01 A299 RMK A01 T01180010  RH  047%=      5-min Rain = 0
KSC1 180551Z 04003KT 12/01 A299 RMK A01 T01180010  RH  047%=      5-min Rain = 0
KSC1 180552Z 04004KT 12/01 A299 RMK A01 T01180010  RH  048%=      5-min Rain = 0
KSC1 180553Z 04004KT 12/01 A299 RMK A01 T01180010  RH  048%=      5-min Rain = 0
KSC1 180554Z 05004KT 12/01 A299 RMK A01 T01180010  RH  048%=      5-min Rain = 0
KSC1 180555Z 05004KT 12/01 A299 RMK A01 T01170010  RH  048%=      5-min Rain = 0
KSC1 180556Z 04004KT 12/01 A299 RMK A01 T01170010  RH  048%=      5-min Rain = 0
KSC1 180557Z 04004KT 12/01 A299 RMK A01 T01170010  RH  048%=      5-min Rain = 0
KSC1 180558Z 04003KT 12/01 A299 RMK A01 T01170010  RH  048%=      5-min Rain = 0
KSC1 180559Z 04002KT 12/01 A299 RMK A01 T01160010  RH  048%=      5-min Rain = 0
KSC1 180600Z 05002KT 12/01 A299 RMK A01 T01160010  RH  048%=      5-min Rain = 0
KSC1 180601Z 05003KT 12/01 A299 RMK A01 T01160010  RH  048%=      5-min Rain = 0
KSC1 180602Z 06003KT 12/01 A299 RMK A01 T01160010  RH  048%=      5-min Rain = 0
KSC1 180603Z 06003KT 12/01 A299 RMK A01 T01160010  RH  048%=      5-min Rain = 0
KSC1 180604Z 06002KT 12/01 A299 RMK A01 T01170010  RH  048%=      5-min Rain = 0
KSC1 180605Z 06003KT 12/01 A299 RMK A01 T01170010  RH  048%=      5-min Rain = 0
KSC1 180606Z 06003KT 12/01 A299 RMK A01 T01170010  RH  048%=      5-min Rain = 0
KSC1 180607Z 06003KT 12/01 A299 RMK A01 T01160010  RH  048%=      5-min Rain = 0
KSC1 180608Z 06003KT 12/01 A299 RMK A01 T01160011  RH  048%=      5-min Rain = 0
KSC1 180609Z 06003KT 12/01 A299 RMK A01 T01160011  RH  048%=      5-min Rain = 0
KSC1 180610Z 06002KT 12/01 A299 RMK A01 T01160011  RH  048%=      5-min Rain = 0
KSC1 180611Z 05003KT 12/01 A299 RMK A01 T01160010  RH  048%=      5-min Rain = 0
KSC1 180612Z 05004KT 12/01 A299 RMK A01 T01160011  RH  049%=      5-min Rain = 0
KSC1 180613Z 05003KT 12/01 A299 RMK A01 T01150011  RH  049%=      5-min Rain = 0
KSC1 180614Z 06003KT 11/01 A299 RMK A01 T01140010  RH  049%=      5-min Rain = 0
KSC1 180615Z 05003KT 11/01 A299 RMK A01 T01140010  RH  049%=      5-min Rain = 0
KSC1 180616Z 05004KT 11/01 A299 RMK A01 T01130011  RH  049%=      5-min Rain = 0
KSC1 180617Z 06002KT 11/01 A299 RMK A01 T01130010  RH  049%=      5-min Rain = 0
KSC1 180618Z 07001KT 11/01 A299 RMK A01 T01130009  RH  049%=      5-min Rain = 0
KSC1 180619Z 05002KT 11/01 A299 RMK A01 T01120009  RH  049%=      5-min Rain = 0
KSC1 180620Z 05002KT 11/01 A299 RMK A01 T01110009  RH  049%=      5-min Rain = 0
KSC1 180621Z 05003KT 11/01 A299 RMK A01 T01100009  RH  050%=      5-min Rain = 0
KSC1 180622Z 05002KT 11/01 A299 RMK A01 T01100009  RH  050%=      5-min Rain = 0
KSC1 180623Z 06002KT 11/01 A299 RMK A01 T01090008  RH  050%=      5-min Rain = 0
KSC1 180624Z 05001KT 11/01 A299 RMK A01 T01080008  RH  050%=      5-min Rain = 0
KSC1 180625Z 06002KT 11/01 A299 RMK A01 T01070009  RH  051%=      5-min Rain = 0
KSC1 180626Z 05003KT 11/01 A299 RMK A01 T01060009  RH  051%=      5-min Rain = 0
KSC1 180627Z 06002KT 11/01 A299 RMK A01 T01060009  RH  051%=      5-min Rain = 0
KSC1 180628Z 06002KT 11/01 A299 RMK A01 T01060009  RH  051%=      5-min Rain = 0
KSC1 180629Z 04002KT 11/01 A299 RMK A01 T01050009  RH  051%=      5-min Rain = 0
KSC1 180630Z 05002KT 10/01 A299 RMK A01 T01040009  RH  051%=      5-min Rain = 0
KSC1 180631Z 04003KT 10/01 A299 RMK A01 T01040009  RH  052%=      5-min Rain = 0
KSC1 180632Z 03002KT 10/01 A299 RMK A01 T01030010  RH  052%=      5-min Rain = 0
KSC1 180633Z 02001KT 10/01 A299 RMK A01 T01030009  RH  052%=      5-min Rain = 0
KSC1 180634Z 00001KT 10/01 A299 RMK A01 T01020008  RH  052%=      5-min Rain = 0
KSC1 180635Z 34001KT 10/01 A299 RMK A01 T01020009  RH  053%=      5-min Rain = 0
KSC1 180636Z 00001KT 10/01 A299 RMK A01 T01020009  RH  053%=      5-min Rain = 0
KSC1 180637Z 36001KT 10/01 A299 RMK A01 T01020010  RH  053%=      5-min Rain = 0
KSC1 180638Z 01002KT 10/01 A299 RMK A01 T01030010  RH  052%=      5-min Rain = 0
KSC1 180639Z 02003KT 10/01 A299 RMK A01 T01030009  RH  052%=      5-min Rain = 0
KSC1 180640Z 03002KT 10/01 A299 RMK A01 T01030009  RH  052%=      5-min Rain = 0
KSC1 180641Z 04001KT 10/01 A299 RMK A01 T01020008  RH  052%=      5-min Rain = 0
KSC1 180642Z 06001KT 10/01 A299 RMK A01 T01020009  RH  053%=      5-min Rain = 0
KSC1 180643Z 06001KT 10/01 A299 RMK A01 T01010010  RH  053%=      5-min Rain = 0
KSC1 180644Z 04001KT 10/01 A299 RMK A01 T01010008  RH  052%=      5-min Rain = 0
KSC1 180645Z 05001KT 10/01 A299 RMK A01 T00990007  RH  053%=      5-min Rain = 0
KSC1 180646Z 05001KT 10/01 A299 RMK A01 T00980007  RH  053%=      5-min Rain = 0
KSC1 180647Z 07001KT 10/01 A299 RMK A01 T00960006  RH  053%=      5-min Rain = 0
KSC1 180648Z 07001KT 10/01 A299 RMK A01 T00960007  RH  054%=      5-min Rain = 0
KSC1 180649Z 08001KT 10/01 A299 RMK A01 T00950007  RH  054%=      5-min Rain = 0
KSC1 180650Z 08001KT 09/01 A299 RMK A01 T00940006  RH  054%=      5-min Rain = 0
KSC1 180651Z 08002KT 09/01 A299 RMK A01 T00930006  RH  054%=      5-min Rain = 0
KSC1 180652Z 08002KT 09/01 A299 RMK A01 T00930009  RH  056%=      5-min Rain = 0
KSC1 180653Z 08002KT 09/01 A299 RMK A01 T00930009  RH  056%=      5-min Rain = 0
KSC1 180654Z 09002KT 09/01 A299 RMK A01 T00930010  RH  056%=      5-min Rain = 0
KSC1 180655Z 08002KT 09/01 A299 RMK A01 T00940011  RH  056%=      5-min Rain = 0
KSC1 180656Z 09002KT 10/01 A2989 RMK A01 T00950011  RH  056%=      5-min Rain = 0
KSC1 180657Z 08002KT 10/01 A2989 RMK A01 T00950010  RH  055%=      5-min Rain = 0
KSC1 180658Z 08002KT 10/01 A2989 RMK A01 T00950007  RH  054%=      5-min Rain = 0
KSC1 180659Z 08002KT 09/01 A2989 RMK A01 T00940006  RH  054%=      5-min Rain = 0
KSC1 180700Z 07002KT 09/01 A2989 RMK A01 T00930007  RH  055%=      5-min Rain = 0
KSC1 180701Z 08002KT 09/01 A2989 RMK A01 T00920008  RH  056%=      5-min Rain = 0
KSC1 180702Z 09002KT 09/01 A2989 RMK A01 T00910007  RH  055%=      5-min Rain = 0
KSC1 180703Z 11002KT 09/01 A2989 RMK A01 T00900006  RH  055%=      5-min Rain = 0
KSC1 180704Z 07003KT 09/01 A2989 RMK A01 T00890006  RH  056%=      5-min Rain = 0
KSC1 180705Z 08002KT 09/01 A2989 RMK A01 T00890007  RH  056%=      5-min Rain = 0
KSC1 180706Z 07002KT 09/01 A2989 RMK A01 T00880005  RH  056%=      5-min Rain = 0
KSC1 180707Z 08001KT 09/00 A2989 RMK A01 T00880004  RH  056%=      5-min Rain = 0
KSC1 180708Z 07002KT 09/00 A2989 RMK A01 T00870004  RH  056%=      5-min Rain = 0
KSC1 180709Z 06002KT 09/01 A2989 RMK A01 T00860006  RH  057%=      5-min Rain = 0
KSC1 180710Z 05003KT 09/01 A2989 RMK A01 T00860008  RH  058%=      5-min Rain = 0
KSC1 180711Z 05003KT 09/01 A2989 RMK A01 T00860009  RH  058%=      5-min Rain = 0
KSC1 180712Z 07003KT 09/01 A2989 RMK A01 T00860008  RH  058%=      5-min Rain = 0
KSC1 180713Z 06002KT 09/01 A2989 RMK A01 T00850006  RH  058%=      5-min Rain = 0
KSC1 180714Z 06002KT 09/01 A2989 RMK A01 T00850008  RH  059%=      5-min Rain = 0
KSC1 180715Z 06002KT 09/01 A2989 RMK A01 T00850008  RH  058%=      5-min Rain = 0
KSC1 180716Z 05002KT 09/01 A2989 RMK A01 T00860009  RH  059%=      5-min Rain = 0
KSC1 180717Z 06002KT 09/01 A2989 RMK A01 T00860008  RH  058%=      5-min Rain = 0
KSC1 180718Z 05003KT 09/01 A2989 RMK A01 T00860010  RH  059%=      5-min Rain = 0
KSC1 180719Z 05003KT 09/01 A2989 RMK A01 T00860010  RH  059%=      5-min Rain = 0
KSC1 180720Z 06002KT 09/01 A2989 RMK A01 T00870009  RH  058%=      5-min Rain = 0
KSC1 180721Z 06002KT 09/01 A2989 RMK A01 T00870009  RH  058%=      5-min Rain = 0
KSC1 180722Z 06003KT 09/01 A2989 RMK A01 T00880009  RH  058%=      5-min Rain = 0
KSC1 180723Z 07003KT 09/01 A2989 RMK A01 T00880010  RH  058%=      5-min Rain = 0
KSC1 180724Z 07002KT 09/01 A2989 RMK A01 T00890011  RH  058%=      5-min Rain = 0
KSC1 180725Z 06002KT 09/01 A2989 RMK A01 T00900010  RH  057%=      5-min Rain = 0
KSC1 180726Z 06002KT 09/01 A2989 RMK A01 T00900009  RH  057%=      5-min Rain = 0
KSC1 180727Z 06002KT 09/01 A2989 RMK A01 T00900009  RH  057%=      5-min Rain = 0
KSC1 180728Z 06002KT 09/01 A2989 RMK A01 T00900010  RH  057%=      5-min Rain = 0
KSC1 180729Z 06002KT 09/01 A2989 RMK A01 T00900010  RH  057%=      5-min Rain = 0
KSC1 180730Z 06002KT 09/01 A2989 RMK A01 T00900011  RH  057%=      5-min Rain = 0
KSC1 180731Z 08002KT 09/01 A2989 RMK A01 T00900011  RH  058%=      5-min Rain = 0
KSC1 180732Z 08002KT 09/01 A2989 RMK A01 T00900011  RH  058%=      5-min Rain = 0
KSC1 180733Z 09002KT 09/01 A2989 RMK A01 T00900010  RH  057%=      5-min Rain = 0
KSC1 180734Z 09001KT 09/01 A2989 RMK A01 T00900009  RH  057%=      5-min Rain = 0
KSC1 180735Z 09002KT 09/01 A2989 RMK A01 T00900010  RH  058%=      5-min Rain = 0
KSC1 180736Z 09002KT 09/01 A2989 RMK A01 T00890010  RH  057%=      5-min Rain = 0
KSC1 180737Z 09002KT 09/01 A2989 RMK A01 T00890010  RH  058%=      5-min Rain = 0
KSC1 180738Z 08002KT 09/01 A2989 RMK A01 T00880011  RH  058%=      5-min Rain = 0
KSC1 180739Z 07004KT 09/01 A2989 RMK A01 T00880012  RH  059%=      5-min Rain = 0
KSC1 180740Z 06004KT 09/01 A2989 RMK A01 T00880013  RH  059%=      5-min Rain = 0
KSC1 180741Z 06003KT 09/01 A2989 RMK A01 T00890012  RH  058%=      5-min Rain = 0
KSC1 180742Z 07001KT 09/01 A2989 RMK A01 T00900011  RH  058%=      5-min Rain = 0
KSC1 180743Z 09001KT 09/01 A2989 RMK A01 T00900012  RH  058%=      5-min Rain = 0
KSC1 180744Z 07002KT 09/01 A2989 RMK A01 T00900012  RH  058%=      5-min Rain = 0
KSC1 180745Z 09001KT 09/01 A2989 RMK A01 T00890012  RH  058%=      5-min Rain = 0
KSC1 180746Z 08002KT 09/01 A2989 RMK A01 T00890013  RH  059%=      5-min Rain = 0
KSC1 180747Z 07002KT 09/01 A2989 RMK A01 T00890012  RH  058%=      5-min Rain = 0
KSC1 180748Z 08002KT 09/01 A2989 RMK A01 T00890010  RH  058%=      5-min Rain = 0
KSC1 180749Z 08002KT 09/01 A2989 RMK A01 T00880008  RH  057%=      5-min Rain = 0
KSC1 180750Z 08003KT 09/01 A2989 RMK A01 T00860008  RH  058%=      5-min Rain = 0
KSC1 180751Z 08003KT 09/01 A2989 RMK A01 T00850009  RH  059%=      5-min Rain = 0
KSC1 180752Z 09002KT 08/01 A2989 RMK A01 T00840007  RH  058%=      5-min Rain = 0
KSC1 180753Z 09003KT 08/01 A2989 RMK A01 T00810005  RH  059%=      5-min Rain = 0
KSC1 180754Z 08003KT 08/01 A2989 RMK A01 T00800007  RH  060%=      5-min Rain = 0
KSC1 180755Z 09003KT 08/01 A2989 RMK A01 T00800007  RH  060%=      5-min Rain = 0
KSC1 180756Z 08004KT 08/01 A2989 RMK A01 T00790007  RH  061%=      5-min Rain = 0
KSC1 180757Z 08003KT 08/01 A2989 RMK A01 T00790010  RH  062%=      5-min Rain = 0
KSC1 180758Z 09003KT 08/01 A2989 RMK A01 T00800009  RH  061%=      5-min Rain = 0
KSC1 180759Z 09002KT 08/01 A2989 RMK A01 T00800008  RH  060%=      5-min Rain = 0
KSC1 180800Z 09003KT 08/01 A2989 RMK A01 T00790007  RH  060%=      5-min Rain = 0
KSC1 180801Z 09003KT 08/01 A2989 RMK A01 T00790010  RH  061%=      5-min Rain = 0
KSC1 180802Z 09003KT 08/01 A2989 RMK A01 T00790011  RH  062%=      5-min Rain = 0
KSC1 180803Z 08003KT 08/01 A2989 RMK A01 T00800012  RH  062%=      5-min Rain = 0
KSC1 180804Z 07003KT 08/01 A2989 RMK A01 T00800012  RH  062%=      5-min Rain = 0
KSC1 180805Z 10002KT 08/01 A2989 RMK A01 T00810011  RH  061%=      5-min Rain = 0
KSC1 180806Z 12002KT 08/01 A2989 RMK A01 T00810011  RH  061%=      5-min Rain = 0
KSC1 180807Z 08003KT 08/01 A2989 RMK A01 T00810012  RH  062%=      5-min Rain = 0
KSC1 180808Z 07003KT 08/01 A2989 RMK A01 T00810013  RH  062%=      5-min Rain = 0
KSC1 180809Z 08003KT 08/01 A2989 RMK A01 T00820014  RH  062%=      5-min Rain = 0
KSC1 180810Z 11002KT 08/01 A2989 RMK A01 T00830010  RH  060%=      5-min Rain = 0
KSC1 180811Z 09003KT 08/01 A2989 RMK A01 T00810009  RH  060%=      5-min Rain = 0
KSC1 180812Z 09003KT 08/01 A2989 RMK A01 T00810011  RH  062%=      5-min Rain = 0
KSC1 180813Z 08004KT 08/01 A2989 RMK A01 T00800011  RH  061%=      5-min Rain = 0
KSC1 180814Z 07004KT 08/01 A2989 RMK A01 T00800013  RH  063%=      5-min Rain = 0
KSC1 180815Z 07004KT 08/01 A2989 RMK A01 T00810012  RH  062%=      5-min Rain = 0
KSC1 180816Z 07004KT 08/01 A2989 RMK A01 T00810012  RH  062%=      5-min Rain = 0
KSC1 180817Z 07004KT 08/01 A2989 RMK A01 T00810010  RH  061%=      5-min Rain = 0
KSC1 180818Z 07004KT 08/01 A2989 RMK A01 T00800007  RH  060%=      5-min Rain = 0
KSC1 180819Z 07004KT 08/01 A2989 RMK A01 T00790010  RH  061%=      5-min Rain = 0
KSC1 180820Z 07004KT 08/01 A2989 RMK A01 T00790011  RH  062%=      5-min Rain = 0
KSC1 180821Z 07004KT 08/01 A2989 RMK A01 T00790011  RH  062%=      5-min Rain = 0
KSC1 180822Z 07004KT 08/01 A2989 RMK A01 T00790011  RH  062%=      5-min Rain = 0
KSC1 180823Z 06004KT 08/01 A2989 RMK A01 T00790011  RH  062%=      5-min Rain = 0
KSC1 180824Z 06004KT 08/01 A2989 RMK A01 T00780010  RH  062%=      5-min Rain = 0
KSC1 180825Z 06004KT 08/01 A2989 RMK A01 T00780012  RH  063%=      5-min Rain = 0
KSC1 180826Z 06004KT 08/01 A2989 RMK A01 T00780012  RH  063%=      5-min Rain = 0
KSC1 180827Z 06004KT 08/01 A2989 RMK A01 T00780012  RH  063%=      5-min Rain = 0
KSC1 180828Z 06004KT 08/01 A2989 RMK A01 T00780012  RH  063%=      5-min Rain = 0
KSC1 180829Z 06004KT 08/01 A2989 RMK A01 T00780013  RH  064%=      5-min Rain = 0
KSC1 180830Z 06005KT 08/01 A2989 RMK A01 T00780014  RH  064%=      5-min Rain = 0
KSC1 180831Z 07005KT 08/02 A2989 RMK A01 T00780015  RH  064%=      5-min Rain = 0
KSC1 180832Z 07005KT 08/01 A2989 RMK A01 T00780014  RH  064%=      5-min Rain = 0
KSC1 180833Z 06005KT 08/02 A2989 RMK A01 T00790015  RH  064%=      5-min Rain = 0
KSC1 180834Z 06004KT 08/01 A2989 RMK A01 T00790014  RH  063%=      5-min Rain = 0
KSC1 180835Z 06004KT 08/01 A2989 RMK A01 T00800013  RH  063%=      5-min Rain = 0
KSC1 180836Z 06004KT 08/02 A2989 RMK A01 T00800016  RH  064%=      5-min Rain = 0
KSC1 180837Z 06004KT 08/02 A2989 RMK A01 T00800017  RH  065%=      5-min Rain = 0
KSC1 180838Z 06004KT 08/02 A2989 RMK A01 T00800018  RH  065%=      5-min Rain = 0
KSC1 180839Z 07005KT 08/02 A2989 RMK A01 T00810019  RH  065%=      5-min Rain = 0
KSC1 180840Z 07005KT 08/02 A2989 RMK A01 T00820020  RH  065%=      5-min Rain = 0
KSC1 180841Z 07005KT 08/02 A2989 RMK A01 T00840021  RH  065%=      5-min Rain = 0
KSC1 180842Z 07005KT 09/02 A2989 RMK A01 T00850022  RH  065%=      5-min Rain = 0
KSC1 180843Z 07005KT 09/02 A2989 RMK A01 T00870024  RH  065%=      5-min Rain = 0
KSC1 180844Z 07005KT 09/03 A2988 RMK A01 T00890025  RH  064%=      5-min Rain = 0
KSC1 180845Z 08005KT 09/03 A2988 RMK A01 T00910025  RH  063%=      5-min Rain = 0
KSC1 180846Z 08004KT 09/02 A2988 RMK A01 T00910023  RH  062%=      5-min Rain = 0
KSC1 180847Z 08004KT 09/02 A2988 RMK A01 T00910021  RH  061%=      5-min Rain = 0
KSC1 180848Z 08004KT 09/02 A2988 RMK A01 T00910020  RH  061%=      5-min Rain = 0
KSC1 180849Z 09004KT 09/02 A2988 RMK A01 T00900020  RH  062%=      5-min Rain = 0
KSC1 180850Z 10004KT 09/02 A2988 RMK A01 T00900020  RH  062%=      5-min Rain = 0
KSC1 180851Z 10004KT 09/02 A2988 RMK A01 T00890020  RH  062%=      5-min Rain = 0
KSC1 180852Z 10004KT 09/02 A2988 RMK A01 T00890020  RH  062%=      5-min Rain = 0
KSC1 180853Z 12004KT 09/02 A2988 RMK A01 T00880020  RH  062%=      5-min Rain = 0
KSC1 180854Z 10003KT 09/02 A2988 RMK A01 T00880019  RH  062%=      5-min Rain = 0
KSC1 180855Z 10004KT 09/02 A2988 RMK A01 T00870019  RH  062%=      5-min Rain = 0
KSC1 180856Z 10003KT 09/02 A2988 RMK A01 T00870019  RH  062%=      5-min Rain = 0
KSC1 180857Z 10003KT 09/02 A2988 RMK A01 T00870020  RH  063%=      5-min Rain = 0
KSC1 180858Z 11003KT 09/02 A2988 RMK A01 T00870020  RH  063%=      5-min Rain = 0
KSC1 180859Z 11003KT 09/02 A2988 RMK A01 T00860019  RH  063%=      5-min Rain = 0
KSC1 180900Z 11002KT 09/02 A2988 RMK A01 T00860020  RH  063%=      5-min Rain = 0
KSC1 180901Z 11003KT 09/02 A2988 RMK A01 T00850020  RH  064%=      5-min Rain = 0
KSC1 180902Z 09003KT 09/02 A2988 RMK A01 T00850021  RH  064%=      5-min Rain = 0
KSC1 180903Z 11003KT 09/02 A2988 RMK A01 T00850021  RH  064%=      5-min Rain = 0
KSC1 180904Z 09003KT 08/02 A2988 RMK A01 T00840021  RH  064%=      5-min Rain = 0
KSC1 180905Z 09003KT 08/02 A2988 RMK A01 T00840020  RH  064%=      5-min Rain = 0
KSC1 180906Z 09002KT 08/02 A2988 RMK A01 T00830020  RH  064%=      5-min Rain = 0
KSC1 180907Z 09003KT 08/02 A2987 RMK A01 T00830022  RH  066%=      5-min Rain = 0
KSC1 180908Z 08003KT 08/02 A2987 RMK A01 T00820024  RH  066%=      5-min Rain = 0
KSC1 180909Z 07004KT 08/03 A2987 RMK A01 T00820026  RH  068%=      5-min Rain = 0
KSC1 180910Z 07003KT 08/03 A2987 RMK A01 T00830029  RH  069%=      5-min Rain = 0
KSC1 180911Z 08002KT 08/02 A2988 RMK A01 T00830020  RH  064%=      5-min Rain = 0
KSC1 180912Z 06004KT 08/02 A2987 RMK A01 T00820018  RH  064%=      5-min Rain = 0
KSC1 180913Z 06004KT 08/03 A2987 RMK A01 T00820025  RH  068%=      5-min Rain = 0
KSC1 180914Z 07003KT 08/02 A2987 RMK A01 T00810020  RH  065%=      5-min Rain = 0
KSC1 180915Z 07004KT 08/02 A2987 RMK A01 T00790017  RH  065%=      5-min Rain = 0
KSC1 180916Z 07004KT 08/02 A2987 RMK A01 T00790021  RH  067%=      5-min Rain = 0
KSC1 180917Z 08004KT 08/02 A2987 RMK A01 T00780019  RH  067%=      5-min Rain = 0
KSC1 180918Z 07005KT 08/03 A2987 RMK A01 T00780025  RH  069%=      5-min Rain = 0
KSC1 180919Z 07005KT 08/03 A2987 RMK A01 T00790027  RH  070%=      5-min Rain = 0
KSC1 180920Z 08004KT 08/03 A2987 RMK A01 T00800028  RH  070%=      5-min Rain = 0
KSC1 180921Z 08005KT 08/03 A2987 RMK A01 T00810028  RH  069%=      5-min Rain = 0
KSC1 180922Z 07005KT 08/03 A2987 RMK A01 T00820029  RH  070%=      5-min Rain = 0
KSC1 180923Z 08005KT 08/03 A2987 RMK A01 T00820026  RH  068%=      5-min Rain = 0
KSC1 180924Z 08004KT 08/02 A2987 RMK A01 T00810024  RH  067%=      5-min Rain = 0
KSC1 180925Z 08005KT 08/03 A2987 RMK A01 T00810028  RH  069%=      5-min Rain = 0
KSC1 180926Z 09005KT 08/03 A2987 RMK A01 T00810028  RH  069%=      5-min Rain = 0
KSC1 180927Z 08005KT 08/03 A2987 RMK A01 T00810026  RH  068%=      5-min Rain = 0
KSC1 180928Z 09005KT 08/03 A2987 RMK A01 T00810026  RH  068%=      5-min Rain = 0
KSC1 180929Z 08006KT 08/03 A2986 RMK A01 T00810028  RH  070%=      5-min Rain = 0
KSC1 180930Z 08005KT 08/03 A2986 RMK A01 T00810031  RH  071%=      5-min Rain = 0
KSC1 180931Z 09005KT 08/03 A2986 RMK A01 T00820031  RH  071%=      5-min Rain = 0
KSC1 180932Z 09005KT 08/03 A2986 RMK A01 T00820030  RH  070%=      5-min Rain = 0
KSC1 180933Z 09004KT 08/03 A2986 RMK A01 T00820031  RH  070%=      5-min Rain = 0
KSC1 180934Z 09004KT 08/03 A2986 RMK A01 T00820032  RH  071%=      5-min Rain = 0
KSC1 180935Z 09004KT 08/03 A2986 RMK A01 T00810034  RH  072%=      5-min Rain = 0
KSC1 180936Z 09004KT 08/04 A2986 RMK A01 T00820035  RH  072%=      5-min Rain = 0
KSC1 180937Z 09004KT 08/04 A2986 RMK A01 T00820036  RH  073%=      5-min Rain = 0
KSC1 180938Z 09003KT 08/04 A2986 RMK A01 T00820036  RH  073%=      5-min Rain = 0
KSC1 180939Z 09004KT 08/04 A2986 RMK A01 T00830038  RH  073%=      5-min Rain = 0
KSC1 180940Z 09004KT 08/04 A2986 RMK A01 T00830040  RH  074%=      5-min Rain = 0
KSC1 180941Z 09005KT 08/04 A2986 RMK A01 T00840041  RH  074%=      5-min Rain = 0
KSC1 180942Z 08005KT 09/04 A2986 RMK A01 T00850041  RH  074%=      5-min Rain = 0
KSC1 180943Z 08004KT 09/04 A2986 RMK A01 T00850041  RH  074%=      5-min Rain = 0
KSC1 180944Z 08004KT 09/04 A2986 RMK A01 T00860041  RH  073%=      5-min Rain = 0
KSC1 180945Z 07004KT 09/04 A2986 RMK A01 T00860039  RH  072%=      5-min Rain = 0
KSC1 180946Z 07004KT 09/04 A2986 RMK A01 T00860038  RH  072%=      5-min Rain = 0
KSC1 180947Z 07005KT 09/04 A2986 RMK A01 T00850038  RH  072%=      5-min Rain = 0
KSC1 180948Z 06005KT 09/04 A2986 RMK A01 T00850038  RH  072%=      5-min Rain = 0
KSC1 180949Z 07005KT 09/04 A2986 RMK A01 T00850038  RH  073%=      5-min Rain = 0
KSC1 180950Z 06004KT 08/04 A2986 RMK A01 T00840040  RH  073%=      5-min Rain = 0
KSC1 180951Z 06005KT 09/04 A2986 RMK A01 T00850038  RH  072%=      5-min Rain = 0
KSC1 180952Z 06005KT 09/04 A2986 RMK A01 T00850041  RH  074%=      5-min Rain = 0
KSC1 180953Z 06005KT 09/04 A2986 RMK A01 T00860042  RH  074%=      5-min Rain = 0
KSC1 180954Z 06005KT 09/04 A2986 RMK A01 T00870042  RH  073%=      5-min Rain = 0
KSC1 180955Z 06005KT 09/04 A2986 RMK A01 T00880041  RH  072%=      5-min Rain = 0
KSC1 180956Z 06006KT 09/04 A2985 RMK A01 T00880039  RH  071%=      5-min Rain = 0
KSC1 180957Z 06006KT 09/04 A2985 RMK A01 T00880039  RH  071%=      5-min Rain = 0
KSC1 180958Z 06006KT 09/04 A2986 RMK A01 T00880038  RH  071%=      5-min Rain = 0
KSC1 180959Z 06005KT 09/04 A2986 RMK A01 T00880037  RH  070%=      5-min Rain = 0
KSC1 181000Z 06005KT 09/04 A2986 RMK A01 T00880037  RH  070%=      5-min Rain = 0
KSC1 181001Z 05006KT 09/04 A2986 RMK A01 T00890037  RH  070%=      5-min Rain = 0
KSC1 181002Z 06006KT 09/04 A2985 RMK A01 T00900037  RH  070%=      5-min Rain = 0
KSC1 181003Z 06007KT 09/04 A2985 RMK A01 T00910037  RH  069%=      5-min Rain = 0
KSC1 181004Z 06007KT 09/04 A2985 RMK A01 T00910037  RH  069%=      5-min Rain = 0
KSC1 181005Z 06005KT 09/04 A2985 RMK A01 T00910036  RH  068%=      5-min Rain = 0
KSC1 181006Z 06006KT 09/04 A2986 RMK A01 T00910036  RH  068%=      5-min Rain = 0
KSC1 181007Z 06005KT 09/04 A2986 RMK A01 T00910036  RH  068%=      5-min Rain = 0
KSC1 181008Z 05003KT 09/04 A2986 RMK A01 T00910037  RH  069%=      5-min Rain = 0
KSC1 181009Z 06004KT 09/04 A2986 RMK A01 T00910038  RH  069%=      5-min Rain = 0
KSC1 181010Z 06005KT 09/04 A2986 RMK A01 T00920038  RH  069%=      5-min Rain = 0
KSC1 181011Z 06005KT 09/04 A2986 RMK A01 T00920039  RH  069%=      5-min Rain = 0
KSC1 181012Z 06005KT 09/04 A2986 RMK A01 T00940039  RH  069%=      5-min Rain = 0
KSC1 181013Z 06005KT 09/04 A2986 RMK A01 T00940038  RH  068%=      5-min Rain = 0
KSC1 181014Z 06005KT 09/04 A2986 RMK A01 T00930038  RH  069%=      5-min Rain = 0
KSC1 181015Z 06005KT 09/04 A2986 RMK A01 T00930038  RH  069%=      5-min Rain = 0
KSC1 181016Z 05005KT 09/04 A2986 RMK A01 T00920037  RH  069%=      5-min Rain = 0
KSC1 181017Z 05005KT 09/04 A2986 RMK A01 T00920037  RH  069%=      5-min Rain = 0
KSC1 181018Z 06005KT 09/04 A2986 RMK A01 T00910037  RH  069%=      5-min Rain = 0
KSC1 181019Z 06006KT 09/04 A2985 RMK A01 T00910037  RH  069%=      5-min Rain = 0
KSC1 181020Z 06005KT 09/04 A2985 RMK A01 T00900037  RH  069%=      5-min Rain = 0
KSC1 181021Z 06006KT 09/04 A2985 RMK A01 T00890037  RH  070%=      5-min Rain = 0
KSC1 181022Z 07006KT 09/04 A2985 RMK A01 T00900038  RH  070%=      5-min Rain = 0
KSC1 181023Z 06006KT 09/04 A2985 RMK A01 T00900038  RH  070%=      5-min Rain = 0
KSC1 181024Z 07006KT 09/04 A2985 RMK A01 T00890038  RH  070%=      5-min Rain = 0
KSC1 181025Z 07006KT 09/04 A2985 RMK A01 T00890037  RH  070%=      5-min Rain = 0
KSC1 181026Z 06007KT 09/04 A2985 RMK A01 T00890037  RH  070%=      5-min Rain = 0
KSC1 181027Z 07007KT 09/04 A2984 RMK A01 T00890037  RH  070%=      5-min Rain = 0
KSC1 181028Z 07007KT 09/04 A2984 RMK A01 T00890037  RH  070%=      5-min Rain = 0
KSC1 181029Z 07007KT 09/04 A2984 RMK A01 T00890037  RH  070%=      5-min Rain = 0
KSC1 181030Z 07007KT 09/04 A2984 RMK A01 T00890037  RH  070%=      5-min Rain = 0
KSC1 181031Z 07007KT 09/04 A2984 RMK A01 T00890038  RH  070%=      5-min Rain = 0
KSC1 181032Z 07007KT 09/04 A2984 RMK A01 T00890038  RH  070%=      5-min Rain = 0
KSC1 181033Z 07007KT 09/04 A2984 RMK A01 T00890039  RH  071%=      5-min Rain = 0
KSC1 181034Z 07006KT 09/04 A2984 RMK A01 T00890039  RH  071%=      5-min Rain = 0
KSC1 181035Z 08003KT 09/04 A2984 RMK A01 T00890039  RH  071%=      5-min Rain = 0
KSC1 181036Z 26003KT 09/04 A2985 RMK A01 T00890039  RH  071%=      5-min Rain = 0
KSC1 181037Z 26005KT 09/04 A2986 RMK A01 T00890039  RH  071%=      5-min Rain = 0
KSC1 181038Z 28001KT 09/04 A2986 RMK A01 T00890041  RH  072%=      5-min Rain = 0
KSC1 181039Z 06004KT 09/04 A2985 RMK A01 T00890042  RH  072%=      5-min Rain = 0
KSC1 181040Z 07005KT 09/04 A2985 RMK A01 T00900042  RH  072%=      5-min Rain = 0
KSC1 181041Z 07004KT 09/04 A2985 RMK A01 T00900042  RH  072%=      5-min Rain = 0
KSC1 181042Z 07003KT 09/04 A2985 RMK A01 T00900042  RH  072%=      5-min Rain = 0
KSC1 181043Z 07003KT 09/04 A2985 RMK A01 T00900042  RH  072%=      5-min Rain = 0
KSC1 181044Z 08005KT 09/04 A2985 RMK A01 T00900042  RH  072%=      5-min Rain = 0
KSC1 181045Z 08006KT 09/04 A2985 RMK A01 T00900042  RH  072%=      5-min Rain = 0
KSC1 181046Z 09004KT 09/04 A2985 RMK A01 T00890041  RH  072%=      5-min Rain = 0
KSC1 181047Z 11003KT 09/04 A2985 RMK A01 T00880040  RH  072%=      5-min Rain = 0
KSC1 181048Z 11002KT 09/04 A2985 RMK A01 T00870039  RH  072%=      5-min Rain = 0
KSC1 181049Z 10004KT 09/04 A2985 RMK A01 T00860039  RH  072%=      5-min Rain = 0
KSC1 181050Z 10003KT 09/04 A2985 RMK A01 T00860040  RH  073%=      5-min Rain = 0
KSC1 181051Z 10002KT 09/04 A2986 RMK A01 T00860040  RH  073%=      5-min Rain = 0
KSC1 181052Z 17002KT 09/04 A2986 RMK A01 T00850041  RH  074%=      5-min Rain = 0
KSC1 181053Z 17001KT 09/04 A2986 RMK A01 T00850041  RH  074%=      5-min Rain = 0
KSC1 181054Z 12001KT 08/04 A2986 RMK A01 T00840040  RH  074%=      5-min Rain = 0
KSC1 181055Z 11001KT 08/04 A2986 RMK A01 T00840040  RH  074%=      5-min Rain = 0
KSC1 181056Z 18001KT 08/04 A2986 RMK A01 T00840039  RH  074%=      5-min Rain = 0
KSC1 181057Z 18000KT 08/04 A2986 RMK A01 T00830038  RH  073%=      5-min Rain = 0
KSC1 181058Z 18000KT 08/04 A2986 RMK A01 T00830040  RH  074%=      5-min Rain = 0
KSC1 181059Z 00000KT 08/04 A2986 RMK A01 T00820041  RH  075%=      5-min Rain = 0
KSC1 181100Z 18000KT 08/04 A2986 RMK A01 T00820037  RH  074%=      5-min Rain = 0
KSC1 181101Z 18001KT 08/04 A2986 RMK A01 T00800038  RH  075%=      5-min Rain = 0
KSC1 181102Z 18000KT 08/04 A2986 RMK A01 T00790039  RH  076%=      5-min Rain = 0
KSC1 181103Z 17000KT 08/04 A2986 RMK A01 T00790038  RH  076%=      5-min Rain = 0
KSC1 181104Z 05001KT 08/04 A2986 RMK A01 T00780038  RH  076%=      5-min Rain = 0
KSC1 181105Z 05001KT 08/04 A2986 RMK A01 T00770035  RH  075%=      5-min Rain = 0
KSC1 181106Z 05001KT 08/03 A2986 RMK A01 T00770033  RH  074%=      5-min Rain = 0
KSC1 181107Z 06002KT 08/03 A2986 RMK A01 T00760033  RH  074%=      5-min Rain = 0
KSC1 181108Z 08001KT 08/03 A2986 RMK A01 T00750031  RH  073%=      5-min Rain = 0
KSC1 181109Z 09002KT 07/03 A2986 RMK A01 T00730029  RH  073%=      5-min Rain = 0
KSC1 181110Z 10002KT 07/03 A2986 RMK A01 T00720032  RH  076%=      5-min Rain = 0
KSC1 181111Z 12002KT 07/03 A2986 RMK A01 T00710033  RH  077%=      5-min Rain = 0
KSC1 181112Z 12002KT 07/04 A2986 RMK A01 T00700035  RH  078%=      5-min Rain = 0
KSC1 181113Z 11002KT 07/03 A2986 RMK A01 T00690034  RH  078%=      5-min Rain = 0
KSC1 181114Z 12001KT 07/03 A2986 RMK A01 T00680030  RH  077%=      5-min Rain = 0
KSC1 181115Z 12002KT 07/03 A2986 RMK A01 T00670031  RH  078%=      5-min Rain = 0
KSC1 181116Z 11002KT 07/03 A2986 RMK A01 T00660031  RH  078%=      5-min Rain = 0
KSC1 181117Z 14001KT 07/03 A2986 RMK A01 T00650030  RH  078%=      5-min Rain = 0
KSC1 181118Z 10001KT 07/03 A2986 RMK A01 T00650030  RH  079%=      5-min Rain = 0
KSC1 181119Z 09001KT 07/03 A2986 RMK A01 T00650032  RH  079%=      5-min Rain = 0
KSC1 181120Z 08001KT 07/03 A2986 RMK A01 T00650034  RH  081%=      5-min Rain = 0
KSC1 181121Z 08002KT 06/03 A2986 RMK A01 T00640032  RH  080%=      5-min Rain = 0
KSC1 181122Z 08002KT 06/03 A2986 RMK A01 T00640033  RH  080%=      5-min Rain = 0
KSC1 181123Z 08001KT 06/03 A2987 RMK A01 T00640031  RH  079%=      5-min Rain = 0
KSC1 181124Z 08002KT 06/03 A2987 RMK A01 T00630030  RH  079%=      5-min Rain = 0
KSC1 181125Z 07002KT 06/03 A2987 RMK A01 T00630028  RH  078%=      5-min Rain = 0
KSC1 181126Z 07003KT 06/03 A2987 RMK A01 T00620029  RH  079%=      5-min Rain = 0
KSC1 181127Z 07002KT 06/03 A2987 RMK A01 T00620030  RH  080%=      5-min Rain = 0
KSC1 181128Z 08002KT 06/03 A2987 RMK A01 T00610025  RH  078%=      5-min Rain = 0
KSC1 181129Z 09002KT 06/02 A2987 RMK A01 T00600024  RH  077%=      5-min Rain = 0
KSC1 181130Z 09002KT 06/03 A2987 RMK A01 T00600026  RH  079%=      5-min Rain = 0
KSC1 181131Z 07001KT 06/03 A2987 RMK A01 T00590027  RH  080%=      5-min Rain = 0
KSC1 181132Z 05001KT 06/03 A2987 RMK A01 T00590027  RH  080%=      5-min Rain = 0
KSC1 181133Z 06001KT 06/03 A2987 RMK A01 T00590030  RH  082%=      5-min Rain = 0
KSC1 181134Z 08002KT 06/03 A2987 RMK A01 T00590031  RH  082%=      5-min Rain = 0
KSC1 181135Z 09001KT 06/03 A2987 RMK A01 T00580029  RH  081%=      5-min Rain = 0
KSC1 181136Z 09001KT 06/03 A2987 RMK A01 T00580028  RH  081%=      5-min Rain = 0
KSC1 181137Z 08001KT 06/03 A2987 RMK A01 T00580034  RH  085%=      5-min Rain = 0
KSC1 181138Z 08002KT 06/04 A2987 RMK A01 T00590039  RH  087%=      5-min Rain = 0
KSC1 181139Z 09000KT 06/03 A2987 RMK A01 T00580034  RH  084%=      5-min Rain = 0
KSC1 181140Z 07000KT 06/03 A2987 RMK A01 T00580031  RH  083%=      5-min Rain = 0
KSC1 181141Z 08001KT 06/03 A2987 RMK A01 T00570031  RH  083%=      5-min Rain = 0
KSC1 181142Z 10001KT 06/03 A2987 RMK A01 T00570034  RH  085%=      5-min Rain = 0
KSC1 181143Z 08002KT 06/03 A2987 RMK A01 T00570033  RH  084%=      5-min Rain = 0
KSC1 181144Z 09002KT 06/03 A2987 RMK A01 T00570029  RH  082%=      5-min Rain = 0
KSC1 181145Z 09002KT 06/03 A2987 RMK A01 T00560025  RH  080%=      5-min Rain = 0
KSC1 181146Z 08003KT 06/03 A2987 RMK A01 T00550025  RH  081%=      5-min Rain = 0
KSC1 181147Z 07004KT 06/03 A2987 RMK A01 T00550026  RH  082%=      5-min Rain = 0
KSC1 181148Z 07004KT 06/03 A2987 RMK A01 T00550028  RH  082%=      5-min Rain = 0
KSC1 181149Z 06004KT 05/02 A2987 RMK A01 T00540023  RH  080%=      5-min Rain = 0
KSC1 181150Z 07004KT 05/03 A2987 RMK A01 T00540025  RH  081%=      5-min Rain = 0
KSC1 181151Z 07004KT 05/03 A2987 RMK A01 T00540030  RH  084%=      5-min Rain = 0
KSC1 181152Z 07004KT 06/05 A2986 RMK A01 T00580046  RH  092%=      5-min Rain = 0
KSC1 181153Z 07005KT 06/05 A2986 RMK A01 T00610046  RH  090%=      5-min Rain = 0
KSC1 181154Z 07004KT 06/04 A2986 RMK A01 T00620043  RH  087%=      5-min Rain = 0
KSC1 181155Z 07005KT 06/04 A2986 RMK A01 T00630043  RH  087%=      5-min Rain = 0
KSC1 181156Z 07005KT 06/04 A2986 RMK A01 T00640044  RH  087%=      5-min Rain = 0
KSC1 181157Z 06004KT 07/04 A2986 RMK A01 T00650044  RH  087%=      5-min Rain = 0
KSC1 181158Z 06005KT 07/04 A2986 RMK A01 T00660043  RH  085%=      5-min Rain = 0
KSC1 181159Z 06005KT 07/04 A2986 RMK A01 T00670044  RH  085%=      5-min Rain = 0
KSC1 181200Z 06004KT 07/05 A2986 RMK A01 T00690046  RH  086%=      5-min Rain = 0
KSC1 181201Z 06004KT 07/05 A2986 RMK A01 T00710049  RH  086%=      5-min Rain = 0
KSC1 181202Z 06004KT 07/05 A2986 RMK A01 T00730050  RH  085%=      5-min Rain = 0
KSC1 181203Z 05004KT 08/05 A2986 RMK A01 T00750048  RH  083%=      5-min Rain = 0
KSC1 181204Z 05003KT 08/05 A2986 RMK A01 T00750047  RH  082%=      5-min Rain = 0
KSC1 181205Z 06002KT 08/05 A2986 RMK A01 T00750045  RH  082%=      5-min Rain = 0
KSC1 181206Z 06003KT 08/05 A2987 RMK A01 T00750045  RH  082%=      5-min Rain = 0
KSC1 181207Z 06004KT 08/05 A2987 RMK A01 T00750048  RH  083%=      5-min Rain = 0
KSC1 181208Z 06004KT 08/05 A2986 RMK A01 T00760048  RH  083%=      5-min Rain = 0
KSC1 181209Z 06004KT 08/05 A2986 RMK A01 T00770048  RH  082%=      5-min Rain = 0
KSC1 181210Z 07004KT 08/05 A2986 RMK A01 T00770046  RH  081%=      5-min Rain = 0
KSC1 181211Z 07004KT 08/05 A2986 RMK A01 T00770046  RH  081%=      5-min Rain = 0
KSC1 181212Z 06004KT 08/05 A2986 RMK A01 T00770046  RH  081%=      5-min Rain = 0
KSC1 181213Z 07004KT 08/05 A2986 RMK A01 T00770047  RH  081%=      5-min Rain = 0
KSC1 181214Z 08003KT 08/05 A2986 RMK A01 T00760047  RH  081%=      5-min Rain = 0
KSC1 181215Z 08005KT 08/05 A2986 RMK A01 T00770048  RH  082%=      5-min Rain = 0
KSC1 181216Z 07005KT 08/05 A2986 RMK A01 T00770049  RH  082%=      5-min Rain = 0
KSC1 181217Z 07004KT 08/05 A2986 RMK A01 T00780049  RH  082%=      5-min Rain = 0
KSC1 181218Z 07004KT 08/05 A2986 RMK A01 T00780047  RH  081%=      5-min Rain = 0
KSC1 181219Z 07004KT 08/05 A2986 RMK A01 T00780048  RH  081%=      5-min Rain = 0
KSC1 181220Z 07004KT 08/05 A2986 RMK A01 T00780049  RH  082%=      5-min Rain = 0
KSC1 181221Z 08004KT 08/05 A2986 RMK A01 T00780049  RH  082%=      5-min Rain = 0
KSC1 181222Z 08004KT 08/05 A2986 RMK A01 T00780049  RH  082%=      5-min Rain = 0
KSC1 181223Z 08004KT 08/05 A2986 RMK A01 T00780051  RH  083%=      5-min Rain = 0
KSC1 181224Z 07004KT 08/05 A2986 RMK A01 T00790052  RH  083%=      5-min Rain = 0
KSC1 181225Z 08004KT 08/05 A2986 RMK A01 T00790051  RH  082%=      5-min Rain = 0
KSC1 181226Z 07003KT 08/05 A2986 RMK A01 T00790050  RH  082%=      5-min Rain = 0
KSC1 181227Z 07003KT 08/05 A2986 RMK A01 T00790052  RH  083%=      5-min Rain = 0
KSC1 181228Z 07003KT 08/06 A2986 RMK A01 T00810056  RH  084%=      5-min Rain = 0
KSC1 181229Z 06003KT 08/06 A2986 RMK A01 T00810056  RH  084%=      5-min Rain = 0
KSC1 181230Z 05003KT 08/06 A2985 RMK A01 T00840060  RH  085%=      5-min Rain = 0
KSC1 181231Z 05004KT 09/06 A2985 RMK A01 T00850058  RH  083%=      5-min Rain = 0
KSC1 181232Z 05003KT 09/05 A2985 RMK A01 T00850054  RH  081%=      5-min Rain = 0
KSC1 181233Z 05002KT 09/06 A2985 RMK A01 T00850056  RH  082%=      5-min Rain = 0
KSC1 181234Z 05003KT 09/06 A2985 RMK A01 T00850055  RH  081%=      5-min Rain = 0
KSC1 181235Z 05004KT 09/06 A2985 RMK A01 T00850055  RH  081%=      5-min Rain = 0
KSC1 181236Z 05004KT 09/06 A2985 RMK A01 T00850055  RH  081%=      5-min Rain = 0
KSC1 181237Z 06004KT 09/06 A2985 RMK A01 T00850055  RH  082%=      5-min Rain = 0
KSC1 181238Z 05004KT 09/06 A2985 RMK A01 T00850056  RH  082%=      5-min Rain = 0
KSC1 181239Z 06004KT 09/06 A2985 RMK A01 T00850058  RH  083%=      5-min Rain = 0
KSC1 181240Z 05004KT 09/06 A2985 RMK A01 T00860059  RH  083%=      5-min Rain = 0
KSC1 181241Z 06003KT 09/06 A2985 RMK A01 T00870059  RH  083%=      5-min Rain = 0
KSC1 181242Z 05004KT 09/06 A2985 RMK A01 T00870059  RH  083%=      5-min Rain = 0
KSC1 181243Z 05004KT 09/06 A2985 RMK A01 T00880060  RH  083%=      5-min Rain = 0
KSC1 181244Z 05003KT 09/06 A2986 RMK A01 T00880060  RH  083%=      5-min Rain = 0
KSC1 181245Z 05003KT 09/06 A2986 RMK A01 T00890061  RH  083%=      5-min Rain = 0
KSC1 181246Z 06003KT 09/06 A2986 RMK A01 T00900062  RH  083%=      5-min Rain = 0
KSC1 181247Z 05003KT 09/06 A2986 RMK A01 T00910062  RH  082%=      5-min Rain = 0
KSC1 181248Z 05004KT 09/06 A2986 RMK A01 T00910062  RH  082%=      5-min Rain = 0
KSC1 181249Z 05003KT 09/06 A2986 RMK A01 T00920064  RH  082%=      5-min Rain = 0
KSC1 181250Z 06003KT 10/07 A2985 RMK A01 T00950065  RH  082%=      5-min Rain = 0
KSC1 181251Z 06002KT 10/06 A2985 RMK A01 T00960059  RH  078%=      5-min Rain = 0
KSC1 181252Z 06002KT 09/06 A2985 RMK A01 T00940057  RH  077%=      5-min Rain = 0
KSC1 181253Z 06003KT 09/06 A2985 RMK A01 T00940060  RH  079%=      5-min Rain = 0
KSC1 181254Z 07003KT 09/06 A2985 RMK A01 T00940061  RH  080%=      5-min Rain = 0
KSC1 181255Z 07003KT 09/06 A2985 RMK A01 T00940061  RH  080%=      5-min Rain = 0
KSC1 181256Z 06003KT 09/06 A2985 RMK A01 T00940060  RH  080%=      5-min Rain = 0
KSC1 181257Z 07001KT 09/06 A2985 RMK A01 T00930056  RH  078%=      5-min Rain = 0
KSC1 181258Z 05002KT 09/06 A2985 RMK A01 T00920056  RH  078%=      5-min Rain = 0
KSC1 181259Z 07002KT 09/06 A2985 RMK A01 T00920058  RH  079%=      5-min Rain = 0
KSC1 181300Z 06002KT 09/06 A2985 RMK A01 T00910055  RH  078%=      5-min Rain = 0
KSC1 181301Z 07002KT 09/05 A2985 RMK A01 T00910053  RH  077%=      5-min Rain = 0
KSC1 181302Z 07003KT 09/06 A2985 RMK A01 T00900056  RH  079%=      5-min Rain = 0
KSC1 181303Z 07003KT 09/06 A2985 RMK A01 T00900057  RH  080%=      5-min Rain = 0
KSC1 181304Z 07002KT 09/06 A2985 RMK A01 T00900057  RH  080%=      5-min Rain = 0
KSC1 181305Z 06002KT 09/06 A2985 RMK A01 T00910059  RH  081%=      5-min Rain = 0
KSC1 181306Z 06004KT 09/06 A2985 RMK A01 T00910059  RH  080%=      5-min Rain = 0
KSC1 181307Z 05004KT 09/06 A2985 RMK A01 T00920059  RH  080%=      5-min Rain = 0
KSC1 181308Z 05003KT 09/06 A2985 RMK A01 T00920061  RH  081%=      5-min Rain = 0
KSC1 181309Z 05004KT 09/06 A2985 RMK A01 T00930061  RH  080%=      5-min Rain = 0
KSC1 181310Z 05003KT 09/06 A2985 RMK A01 T00940061  RH  080%=      5-min Rain = 0
KSC1 181311Z 06003KT 10/06 A2985 RMK A01 T00960063  RH  080%=      5-min Rain = 0
KSC1 181312Z 05003KT 10/06 A2985 RMK A01 T00970063  RH  079%=      5-min Rain = 0
KSC1 181313Z 06004KT 10/06 A2985 RMK A01 T00980063  RH  079%=      5-min Rain = 0
KSC1 181314Z 06003KT 10/06 A2985 RMK A01 T00990063  RH  078%=      5-min Rain = 0
KSC1 181315Z 04001KT 10/06 A2985 RMK A01 T01010064  RH  078%=      5-min Rain = 0
KSC1 181316Z 08002KT 10/06 A2985 RMK A01 T01020064  RH  077%=      5-min Rain = 0
KSC1 181317Z 07002KT 10/06 A2985 RMK A01 T01030064  RH  077%=      5-min Rain = 0
KSC1 181318Z 07003KT 10/06 A2985 RMK A01 T01040064  RH  076%=      5-min Rain = 0
KSC1 181319Z 06005KT 11/06 A2985 RMK A01 T01050064  RH  076%=      5-min Rain = 0
KSC1 181320Z 06003KT 11/06 A2985 RMK A01 T01050064  RH  076%=      5-min Rain = 0
KSC1 181321Z 08003KT 11/07 A2985 RMK A01 T01070065  RH  075%=      5-min Rain = 0
KSC1 181322Z 07002KT 11/07 A2985 RMK A01 T01080066  RH  075%=      5-min Rain = 0
KSC1 181323Z 07002KT 11/07 A2986 RMK A01 T01090066  RH  074%=      5-min Rain = 0
KSC1 181324Z 06002KT 11/07 A2986 RMK A01 T01110066  RH  074%=      5-min Rain = 0
KSC1 181325Z 07004KT 11/07 A2986 RMK A01 T01120067  RH  074%=      5-min Rain = 0
KSC1 181326Z 07003KT 11/07 A2985 RMK A01 T01130067  RH  073%=      5-min Rain = 0
KSC1 181327Z 08003KT 11/07 A2985 RMK A01 T01140067  RH  073%=      5-min Rain = 0
KSC1 181328Z 08003KT 12/07 A2985 RMK A01 T01160067  RH  072%=      5-min Rain = 0
KSC1 181329Z 08004KT 12/07 A2985 RMK A01 T01170067  RH  071%=      5-min Rain = 0
KSC1 181330Z 08003KT 12/07 A2985 RMK A01 T01180067  RH  071%=      5-min Rain = 0
KSC1 181331Z 08004KT 12/07 A2985 RMK A01 T01190067  RH  071%=      5-min Rain = 0
KSC1 181332Z 09005KT 12/07 A2985 RMK A01 T01200068  RH  070%=      5-min Rain = 0
KSC1 181333Z 09004KT 12/07 A2985 RMK A01 T01210067  RH  070%=      5-min Rain = 0
KSC1 181334Z 08003KT 12/07 A2985 RMK A01 T01220068  RH  070%=      5-min Rain = 0
KSC1 181335Z 09003KT 12/07 A2985 RMK A01 T01220068  RH  069%=      5-min Rain = 0
KSC1 181336Z 09003KT 12/07 A2985 RMK A01 T01230067  RH  069%=      5-min Rain = 0
KSC1 181337Z 09003KT 12/07 A2985 RMK A01 T01240068  RH  069%=      5-min Rain = 0
KSC1 181338Z 09003KT 13/07 A2985 RMK A01 T01250068  RH  068%=      5-min Rain = 0
KSC1 181339Z 07004KT 13/07 A2985 RMK A01 T01250067  RH  068%=      5-min Rain = 0
KSC1 181340Z 07004KT 13/07 A2985 RMK A01 T01250067  RH  068%=      5-min Rain = 0
KSC1 181341Z 07004KT 13/07 A2985 RMK A01 T01250067  RH  068%=      5-min Rain = 0
KSC1 181342Z 07002KT 13/07 A2985 RMK A01 T01260067  RH  068%=      5-min Rain = 0
KSC1 181343Z 11002KT 13/07 A2986 RMK A01 T01270068  RH  067%=      5-min Rain = 0
KSC1 181344Z 09003KT 13/07 A2986 RMK A01 T01270067  RH  067%=      5-min Rain = 0
KSC1 181345Z 08003KT 13/07 A2986 RMK A01 T01280068  RH  067%=      5-min Rain = 0
KSC1 181346Z 09003KT 13/07 A2986 RMK A01 T01290068  RH  066%=      5-min Rain = 0
KSC1 181347Z 09003KT 13/07 A2986 RMK A01 T01290068  RH  066%=      5-min Rain = 0
KSC1 181348Z 10003KT 13/07 A2986 RMK A01 T01300068  RH  066%=      5-min Rain = 0
KSC1 181349Z 09003KT 13/07 A2986 RMK A01 T01310068  RH  066%=      5-min Rain = 0
KSC1 181350Z 08003KT 13/07 A2986 RMK A01 T01310068  RH  065%=      5-min Rain = 0
KSC1 181351Z 08002KT 13/07 A2986 RMK A01 T01320068  RH  065%=      5-min Rain = 0
KSC1 181352Z 11003KT 13/07 A2986 RMK A01 T01320069  RH  065%=      5-min Rain = 0
KSC1 181353Z 11004KT 13/07 A2986 RMK A01 T01330070  RH  065%=      5-min Rain = 0
KSC1 181354Z 12006KT 14/07 A2986 RMK A01 T01350071  RH  065%=      5-min Rain = 0
KSC1 181355Z 12005KT 14/07 A2986 RMK A01 T01370071  RH  065%=      5-min Rain = 0
KSC1 181356Z 15004KT 14/07 A2986 RMK A01 T01380072  RH  064%=      5-min Rain = 0
KSC1 181357Z 13005KT 14/07 A2986 RMK A01 T01400072  RH  064%=      5-min Rain = 0
KSC1 181358Z 12005KT 14/07 A2986 RMK A01 T01410073  RH  063%=      5-min Rain = 0
KSC1 181359Z 13006KT 14/07 A2986 RMK A01 T01420073  RH  063%=      5-min Rain = 0
KSC1 181400Z 11004KT 14/07 A2986 RMK A01 T01430072  RH  063%=      5-min Rain = 0
KSC1 181401Z 10006KT 14/07 A2986 RMK A01 T01440073  RH  062%=      5-min Rain = 0
KSC1 181402Z 14005KT 14/07 A2986 RMK A01 T01440072  RH  062%=      5-min Rain = 0
KSC1 181403Z 11003KT 15/07 A2986 RMK A01 T01450073  RH  062%=      5-min Rain = 0
KSC1 181404Z 11003KT 15/07 A2986 RMK A01 T01460073  RH  062%=      5-min Rain = 0
KSC1 181405Z 12006KT 15/07 A2986 RMK A01 T01470074  RH  061%=      5-min Rain = 0
KSC1 181406Z 12006KT 15/07 A2986 RMK A01 T01480074  RH  061%=      5-min Rain = 0
KSC1 181407Z 11005KT 15/07 A2986 RMK A01 T01480074  RH  061%=      5-min Rain = 0
KSC1 181408Z 13006KT 15/07 A2986 RMK A01 T01490074  RH  061%=      5-min Rain = 0
KSC1 181409Z 12005KT 15/08 A2986 RMK A01 T01500075  RH  061%=      5-min Rain = 0
KSC1 181410Z 14005KT 15/08 A2986 RMK A01 T01510076  RH  061%=      5-min Rain = 0
KSC1 181411Z 14003KT 15/08 A2986 RMK A01 T01510076  RH  061%=      5-min Rain = 0
KSC1 181412Z 12006KT 15/08 A2986 RMK A01 T01530076  RH  060%=      5-min Rain = 0
KSC1 181413Z 13005KT 15/08 A2986 RMK A01 T01530076  RH  060%=      5-min Rain = 0
KSC1 181414Z 13004KT 15/08 A2986 RMK A01 T01540077  RH  060%=      5-min Rain = 0
KSC1 181415Z 13005KT 16/08 A2986 RMK A01 T01550078  RH  060%=      5-min Rain = 0
KSC1 181416Z 13007KT 16/08 A2986 RMK A01 T01560078  RH  060%=      5-min Rain = 0
KSC1 181417Z 12008KT 16/08 A2986 RMK A01 T01560078  RH  060%=      5-min Rain = 0
KSC1 181418Z 13008KT 16/08 A2986 RMK A01 T01570078  RH  060%=      5-min Rain = 0
KSC1 181419Z 11007KT 16/08 A2986 RMK A01 T01570078  RH  060%=      5-min Rain = 0
KSC1 181420Z 13004KT 16/08 A2986 RMK A01 T01570079  RH  060%=      5-min Rain = 0
KSC1 181421Z 14006KT 16/08 A2986 RMK A01 T01580079  RH  059%=      5-min Rain = 0
KSC1 181422Z 12006KT 16/08 A2986 RMK A01 T01580078  RH  059%=      5-min Rain = 0
KSC1 181423Z 11007KT 16/08 A2986 RMK A01 T01580078  RH  059%=      5-min Rain = 0
KSC1 181424Z 13005KT 16/08 A2986 RMK A01 T01590079  RH  059%=      5-min Rain = 0
KSC1 181425Z 12005KT 16/08 A2986 RMK A01 T01600079  RH  059%=      5-min Rain = 0
KSC1 181426Z 13006KT 16/08 A2986 RMK A01 T01600079  RH  059%=      5-min Rain = 0
KSC1 181427Z 10006KT 16/08 A2986 RMK A01 T01610080  RH  059%=      5-min Rain = 0
KSC1 181428Z 11006KT 16/08 A2986 RMK A01 T01610079  RH  058%=      5-min Rain = 0
KSC1 181429Z 11005KT 16/08 A2986 RMK A01 T01620079  RH  058%=      5-min Rain = 0
KSC1 181430Z 12007KT 16/08 A2986 RMK A01 T01630079  RH  058%=      5-min Rain = 0
KSC1 181431Z 11007KT 16/08 A2986 RMK A01 T01630078  RH  057%=      5-min Rain = 0
KSC1 181432Z 11006KT 16/08 A2986 RMK A01 T01630079  RH  057%=      5-min Rain = 0
KSC1 181433Z 12006KT 16/08 A2986 RMK A01 T01630079  RH  057%=      5-min Rain = 0
KSC1 181434Z 15007KT 16/08 A2986 RMK A01 T01640080  RH  057%=      5-min Rain = 0
KSC1 181435Z 14007KT 17/08 A2986 RMK A01 T01660081  RH  057%=      5-min Rain = 0
KSC1 181436Z 13005KT 17/08 A2986 RMK A01 T01670082  RH  057%=      5-min Rain = 0
KSC1 181437Z 13005KT 17/08 A2986 RMK A01 T01670081  RH  057%=      5-min Rain = 0
KSC1 181438Z 12006KT 17/08 A2986 RMK A01 T01680081  RH  056%=      5-min Rain = 0
KSC1 181439Z 14005KT 17/08 A2986 RMK A01 T01690082  RH  056%=      5-min Rain = 0
KSC1 181440Z 15008KT 17/08 A2986 RMK A01 T01710083  RH  056%=      5-min Rain = 0
KSC1 181441Z 14006KT 17/08 A2986 RMK A01 T01710084  RH  056%=      5-min Rain = 0
KSC1 181442Z 12005KT 17/08 A2986 RMK A01 T01710084  RH  056%=      5-min Rain = 0
KSC1 181443Z 15006KT 17/08 A2986 RMK A01 T01720084  RH  056%=      5-min Rain = 0
KSC1 181444Z 13008KT 17/09 A2986 RMK A01 T01730085  RH  056%=      5-min Rain = 0
KSC1 181445Z 14007G12KT 17/09 A2986 RMK A01 T01730086  RH  056%=      5-min Rain = 0
KSC1 181446Z 13010KT 17/09 A2986 RMK A01 T01740086  RH  056%=      5-min Rain = 0
KSC1 181447Z 13007KT 17/09 A2986 RMK A01 T01740086  RH  056%=      5-min Rain = 0
KSC1 181448Z 13006KT 18/09 A2986 RMK A01 T01750087  RH  056%=      5-min Rain = 0
KSC1 181449Z 14004KT 18/09 A2986 RMK A01 T01760087  RH  056%=      5-min Rain = 0
KSC1 181450Z 12006G11KT 18/09 A2986 RMK A01 T01770088  RH  056%=      5-min Rain = 0
KSC1 181451Z 15007KT 18/09 A2986 RMK A01 T01790089  RH  055%=      5-min Rain = 0
KSC1 181452Z 14005KT 18/09 A2986 RMK A01 T01800089  RH  055%=      5-min Rain = 0
KSC1 181453Z 14006KT 18/09 A2986 RMK A01 T01810090  RH  055%=      5-min Rain = 0
KSC1 181454Z 14008KT 18/09 A2986 RMK A01 T01830090  RH  055%=      5-min Rain = 0
KSC1 181455Z 12008KT 18/09 A2986 RMK A01 T01820089  RH  054%=      5-min Rain = 0
KSC1 181456Z 14007KT 18/09 A2986 RMK A01 T01820089  RH  054%=      5-min Rain = 0
KSC1 181457Z 13004KT 18/09 A2986 RMK A01 T01820089  RH  054%=      5-min Rain = 0
KSC1 181458Z 12004KT 18/09 A2986 RMK A01 T01830089  RH  054%=      5-min Rain = 0
KSC1 181459Z 13003KT 18/09 A2986 RMK A01 T01840089  RH  054%=      5-min Rain = 0
KSC1 181500Z 14004KT 19/09 A2986 RMK A01 T01850090  RH  054%=      5-min Rain = 0
KSC1 181501Z 13009G15KT 19/09 A2986 RMK A01 T01870091  RH  054%=      5-min Rain = 0
KSC1 181502Z 13011KT 19/09 A2986 RMK A01 T01870090  RH  053%=      5-min Rain = 0
KSC1 181503Z 14010KT 19/09 A2986 RMK A01 T01850090  RH  054%=      5-min Rain = 0
KSC1 181504Z 15009KT 19/09 A2986 RMK A01 T01850090  RH  054%=      5-min Rain = 0
KSC1 181505Z 15004KT 18/09 A2986 RMK A01 T01840090  RH  054%=      5-min Rain = 0
KSC1 181506Z 15004KT 18/09 A2986 RMK A01 T01840090  RH  054%=      5-min Rain = 0
KSC1 181507Z 17004KT 19/09 A2986 RMK A01 T01850091  RH  054%=      5-min Rain = 0
KSC1 181508Z 17004KT 19/09 A2986 RMK A01 T01870092  RH  054%=      5-min Rain = 0
KSC1 181509Z 15007KT 19/09 A2986 RMK A01 T01880093  RH  054%=      5-min Rain = 0
KSC1 181510Z 15004KT 19/09 A2986 RMK A01 T01900094  RH  054%=      5-min Rain = 0
KSC1 181511Z 13003KT 19/10 A2986 RMK A01 T01910095  RH  054%=      5-min Rain = 0
KSC1 181512Z 18003KT 19/10 A2985 RMK A01 T01920095  RH  053%=      5-min Rain = 0
KSC1 181513Z 19006KT 19/10 A2985 RMK A01 T01940096  RH  053%=      5-min Rain = 0
KSC1 181514Z 18006KT 20/10 A2985 RMK A01 T01950097  RH  053%=      5-min Rain = 0
KSC1 181515Z 13003KT 20/10 A2985 RMK A01 T01960096  RH  053%=      5-min Rain = 0
KSC1 181516Z 17003KT 20/10 A2985 RMK A01 T01970096  RH  052%=      5-min Rain = 0
KSC1 181517Z 21003KT 20/10 A2985 RMK A01 T01980097  RH  052%=      5-min Rain = 0
KSC1 181518Z 09001KT 20/10 A2986 RMK A01 T02000098  RH  052%=      5-min Rain = 0
KSC1 181519Z 21004KT 20/10 A2986 RMK A01 T02010097  RH  051%=      5-min Rain = 0
KSC1 181520Z 17006KT 20/10 A2986 RMK A01 T02020098  RH  051%=      5-min Rain = 0
KSC1 181521Z 19005KT 20/10 A2986 RMK A01 T02020098  RH  051%=      5-min Rain = 0
KSC1 181522Z 17006KT 20/10 A2986 RMK A01 T02030098  RH  051%=      5-min Rain = 0
KSC1 181523Z 18007KT 20/10 A2986 RMK A01 T02030097  RH  051%=      5-min Rain = 0
KSC1 181524Z 19008KT 20/10 A2986 RMK A01 T02020097  RH  051%=      5-min Rain = 0
KSC1 181525Z 17010KT 20/10 A2986 RMK A01 T02010096  RH  051%=      5-min Rain = 0
KSC1 181526Z 17008KT 20/10 A2986 RMK A01 T02000096  RH  051%=      5-min Rain = 0
KSC1 181527Z 17009KT 20/10 A2986 RMK A01 T02000097  RH  051%=      5-min Rain = 0
KSC1 181528Z 18010KT 20/10 A2986 RMK A01 T02000097  RH  051%=      5-min Rain = 0
KSC1 181529Z 18010KT 20/10 A2986 RMK A01 T02010097  RH  051%=      5-min Rain = 0
KSC1 181530Z 18010KT 20/10 A2986 RMK A01 T02010097  RH  051%=      5-min Rain = 0
KSC1 181531Z 19008KT 20/10 A2986 RMK A01 T02000096  RH  051%=      5-min Rain = 0
KSC1 181532Z 18006G13KT 20/10 A2986 RMK A01 T02000097  RH  052%=      5-min Rain = 0
KSC1 181533Z 18010KT 20/10 A2986 RMK A01 T02000097  RH  051%=      5-min Rain = 0
KSC1 181534Z 18011KT 20/10 A2985 RMK A01 T02000097  RH  051%=      5-min Rain = 0
KSC1 181535Z 17008KT 20/10 A2985 RMK A01 T02000097  RH  051%=      5-min Rain = 0
KSC1 181536Z 18010KT 20/10 A2985 RMK A01 T02010097  RH  051%=      5-min Rain = 0
KSC1 181537Z 19009KT 20/10 A2985 RMK A01 T02010097  RH  051%=      5-min Rain = 0
KSC1 181538Z 18009KT 20/10 A2985 RMK A01 T02020097  RH  051%=      5-min Rain = 0
KSC1 181539Z 17010KT 20/10 A2985 RMK A01 T02030097  RH  051%=      5-min Rain = 0
KSC1 181540Z 16008KT 20/10 A2985 RMK A01 T02030097  RH  051%=      5-min Rain = 0
KSC1 181541Z 16010KT 20/10 A2985 RMK A01 T02040098  RH  050%=      5-min Rain = 0
KSC1 181542Z 15007KT 21/10 A2985 RMK A01 T02050098  RH  050%=      5-min Rain = 0
KSC1 181543Z 18008KT 21/10 A2985 RMK A01 T02060098  RH  050%=      5-min Rain = 0
KSC1 181544Z 16008KT 21/10 A2985 RMK A01 T02070098  RH  050%=      5-min Rain = 0
KSC1 181545Z 16010KT 21/10 A2985 RMK A01 T02070098  RH  049%=      5-min Rain = 0
KSC1 181546Z 16006KT 21/10 A2985 RMK A01 T02080098  RH  049%=      5-min Rain = 0
KSC1 181547Z 18004KT 21/10 A2985 RMK A01 T02080098  RH  049%=      5-min Rain = 0
KSC1 181548Z 18006KT 21/10 A2985 RMK A01 T02090098  RH  049%=      5-min Rain = 0
KSC1 181549Z 17008KT 21/10 A2985 RMK A01 T02100098  RH  049%=      5-min Rain = 0
KSC1 181550Z 16008KT 21/10 A2985 RMK A01 T02110098  RH  049%=      5-min Rain = 0
KSC1 181551Z 15011KT 21/10 A2985 RMK A01 T02110098  RH  048%=      5-min Rain = 0
KSC1 181552Z 16008KT 21/10 A2985 RMK A01 T02110098  RH  048%=      5-min Rain = 0
KSC1 181553Z 16007KT 21/10 A2985 RMK A01 T02110099  RH  049%=      5-min Rain = 0
KSC1 181554Z 17009KT 21/10 A2985 RMK A01 T02120099  RH  048%=      5-min Rain = 0
KSC1 181555Z 18010KT 21/10 A2985 RMK A01 T02130098  RH  048%=      5-min Rain = 0
KSC1 181556Z 16009KT 21/10 A2985 RMK A01 T02130098  RH  048%=      5-min Rain = 0
KSC1 181557Z 17007KT 21/10 A2985 RMK A01 T02130098  RH  048%=      5-min Rain = 0
KSC1 181558Z 16009KT 21/10 A2985 RMK A01 T02140099  RH  048%=      5-min Rain = 0
KSC1 181559Z 18009KT 22/10 A2984 RMK A01 T02150099  RH  048%=      5-min Rain = 0
KSC1 181600Z 17011KT 22/10 A2984 RMK A01 T02160099  RH  047%=      5-min Rain = 0
KSC1 181601Z 17009KT 22/10 A2984 RMK A01 T02170098  RH  047%=      5-min Rain = 0
KSC1 181602Z 17011KT 22/10 A2984 RMK A01 T02160099  RH  047%=      5-min Rain = 0
KSC1 181603Z 16010KT 22/10 A2984 RMK A01 T02160098  RH  047%=      5-min Rain = 0
KSC1 181604Z 15011KT 22/10 A2984 RMK A01 T02160099  RH  047%=      5-min Rain = 0
KSC1 181605Z 15010KT 22/10 A2984 RMK A01 T02170099  RH  047%=      5-min Rain = 0
KSC1 181606Z 14009KT 22/10 A2984 RMK A01 T02180099  RH  047%=      5-min Rain = 0
KSC1 181607Z 15009KT 22/10 A2984 RMK A01 T02180099  RH  047%=      5-min Rain = 0
KSC1 181608Z 16006KT 22/10 A2984 RMK A01 T02180099  RH  047%=      5-min Rain = 0
KSC1 181609Z 16009G14KT 22/10 A2984 RMK A01 T02190100  RH  047%=      5-min Rain = 0
KSC1 181610Z 15011KT 22/10 A2984 RMK A01 T02220100  RH  046%=      5-min Rain = 0
KSC1 181611Z 17009KT 22/10 A2984 RMK A01 T02220099  RH  046%=      5-min Rain = 0
KSC1 181612Z 16010KT 22/10 A2984 RMK A01 T02220100  RH  046%=      5-min Rain = 0
KSC1 181613Z 15008KT 22/10 A2983 RMK A01 T02220100  RH  046%=      5-min Rain = 0
KSC1 181614Z 16009KT 22/10 A2983 RMK A01 T02230100  RH  046%=      5-min Rain = 0
KSC1 181615Z 15008KT 22/10 A2983 RMK A01 T02240100  RH  045%=      5-min Rain = 0
KSC1 181616Z 15007KT 23/10 A2983 RMK A01 T02250101  RH  045%=      5-min Rain = 0
KSC1 181617Z 15009G14KT 23/10 A2983 RMK A01 T02270102  RH  045%=      5-min Rain = 0
KSC1 181618Z 14008KT 23/10 A2983 RMK A01 T02280101  RH  044%=      5-min Rain = 0
KSC1 181619Z 14010KT 23/10 A2983 RMK A01 T02280101  RH  044%=      5-min Rain = 0
KSC1 181620Z 16008KT 23/10 A2983 RMK A01 T02290101  RH  044%=      5-min Rain = 0
KSC1 181621Z 16010KT 23/10 A2983 RMK A01 T02300101  RH  044%=      5-min Rain = 0
KSC1 181622Z 15007KT 23/10 A2983 RMK A01 T02300101  RH  044%=      5-min Rain = 0
KSC1 181623Z 16009KT 23/10 A2983 RMK A01 T02310101  RH  044%=      5-min Rain = 0
KSC1 181624Z 17010KT 23/10 A2983 RMK A01 T02320101  RH  043%=      5-min Rain = 0
KSC1 181625Z 17007KT 23/10 A2983 RMK A01 T02330101  RH  043%=      5-min Rain = 0
KSC1 181626Z 17009KT 23/10 A2983 RMK A01 T02340102  RH  043%=      5-min Rain = 0
KSC1 181627Z 18010KT 23/10 A2983 RMK A01 T02340101  RH  043%=      5-min Rain = 0
KSC1 181628Z 17008KT 23/10 A2983 RMK A01 T02340102  RH  043%=      5-min Rain = 0
KSC1 181629Z 17007KT 24/10 A2983 RMK A01 T02350102  RH  043%=      5-min Rain = 0
KSC1 181630Z 17008KT 24/10 A2983 RMK A01 T02360102  RH  043%=      5-min Rain = 0
KSC1 181631Z 16010KT 24/10 A2983 RMK A01 T02370103  RH  043%=      5-min Rain = 0
KSC1 181632Z 17011KT 24/10 A2982 RMK A01 T02390102  RH  042%=      5-min Rain = 0
KSC1 181633Z 16010KT 24/10 A2983 RMK A01 T02380102  RH  042%=      5-min Rain = 0
KSC1 181634Z 16011KT 24/10 A2982 RMK A01 T02370101  RH  042%=      5-min Rain = 0
KSC1 181635Z 17007G12KT 24/10 A2983 RMK A01 T02360102  RH  043%=      5-min Rain = 0
KSC1 181636Z 17007KT 24/10 A2982 RMK A01 T02370103  RH  043%=      5-min Rain = 0
KSC1 181637Z 17012KT 24/10 A2982 RMK A01 T02390103  RH  042%=      5-min Rain = 0
KSC1 181638Z 16010KT 24/10 A2982 RMK A01 T02400102  RH  042%=      5-min Rain = 0
KSC1 181639Z 18012KT 24/10 A2982 RMK A01 T02400102  RH  042%=      5-min Rain = 0
KSC1 181640Z 18012KT 24/10 A2982 RMK A01 T02400102  RH  042%=      5-min Rain = 0
KSC1 181641Z 19010KT 24/10 A2982 RMK A01 T02400102  RH  042%=      5-min Rain = 0
KSC1 181642Z 17012KT 24/10 A2982 RMK A01 T02420103  RH  042%=      5-min Rain = 0
KSC1 181643Z 16011KT 24/10 A2982 RMK A01 T02430103  RH  041%=      5-min Rain = 0
KSC1 181644Z 18010KT 24/10 A2982 RMK A01 T02430103  RH  041%=      5-min Rain = 0
KSC1 181645Z 18012KT 24/10 A2982 RMK A01 T02430103  RH  041%=      5-min Rain = 0
KSC1 181646Z 18010KT 24/10 A2982 RMK A01 T02430103  RH  041%=      5-min Rain = 0
KSC1 181647Z 18012KT 24/10 A2982 RMK A01 T02440103  RH  041%=      5-min Rain = 0
KSC1 181648Z 18009KT 24/10 A2982 RMK A01 T02440103  RH  041%=      5-min Rain = 0
KSC1 181649Z 17010KT 24/10 A2982 RMK A01 T02440103  RH  041%=      5-min Rain = 0
KSC1 181650Z 18007KT 25/10 A2982 RMK A01 T02450104  RH  041%=      5-min Rain = 0
KSC1 181651Z 16006KT 25/11 A2982 RMK A01 T02480106  RH  041%=      5-min Rain = 0
KSC1 181652Z 15011KT 25/11 A2982 RMK A01 T02500105  RH  040%=      5-min Rain = 0
KSC1 181653Z 15011KT 25/10 A2982 RMK A01 T02510103  RH  039%=      5-min Rain = 0
KSC1 181654Z 16009KT 25/10 A2982 RMK A01 T02490102  RH  040%=      5-min Rain = 0
KSC1 181655Z 14010KT 25/10 A2982 RMK A01 T02480103  RH  040%=      5-min Rain = 0
KSC1 181656Z 15011G16KT 25/10 A2982 RMK A01 T02480104  RH  040%=      5-min Rain = 0
KSC1 181657Z 16010KT 25/10 A2982 RMK A01 T02510104  RH  040%=      5-min Rain = 0
KSC1 181658Z 16009KT 25/10 A2982 RMK A01 T02510104  RH  040%=      5-min Rain = 0
KSC1 181659Z 16010KT 25/10 A2982 RMK A01 T02500104  RH  040%=      5-min Rain = 0
KSC1 181700Z 16008KT 25/10 A2982 RMK A01 T02490104  RH  040%=      5-min Rain = 0
KSC1 181701Z 16010KT 25/11 A2982 RMK A01 T02500105  RH  040%=      5-min Rain = 0
KSC1 181702Z 16011KT 25/11 A2982 RMK A01 T02520105  RH  040%=      5-min Rain = 0
KSC1 181703Z 16007KT 25/10 A2982 RMK A01 T02520104  RH  039%=      5-min Rain = 0
KSC1 181704Z 17010KT 25/11 A2982 RMK A01 T02520106  RH  040%=      5-min Rain = 0
KSC1 181705Z 16011KT 25/11 A2981 RMK A01 T02520105  RH  039%=      5-min Rain = 0
KSC1 181706Z 15011KT 25/11 A2981 RMK A01 T02520105  RH  040%=      5-min Rain = 0
KSC1 181707Z 17008KT 25/11 A2981 RMK A01 T02540105  RH  039%=      5-min Rain = 0
KSC1 181708Z 18009KT 26/11 A2981 RMK A01 T02550106  RH  039%=      5-min Rain = 0
KSC1 181709Z 15008KT 26/11 A2981 RMK A01 T02570106  RH  039%=      5-min Rain = 0
KSC1 181710Z 16011KT 26/11 A2981 RMK A01 T02590107  RH  038%=      5-min Rain = 0
KSC1 181711Z 18009KT 26/11 A2981 RMK A01 T02590106  RH  038%=      5-min Rain = 0
KSC1 181712Z 17012KT 26/11 A2981 RMK A01 T02600105  RH  038%=      5-min Rain = 0
KSC1 181713Z 16009KT 26/11 A2981 RMK A01 T02600105  RH  038%=      5-min Rain = 0
KSC1 181714Z 17010KT 26/11 A2981 RMK A01 T02610105  RH  038%=      5-min Rain = 0
KSC1 181715Z 18008KT 26/10 A2981 RMK A01 T02600104  RH  038%=      5-min Rain = 0
KSC1 181716Z 17007G13KT 26/11 A2981 RMK A01 T02590106  RH  038%=      5-min Rain = 0
KSC1 181717Z 18009KT 26/11 A2981 RMK A01 T02630108  RH  038%=      5-min Rain = 0
KSC1 181718Z 18010KT 27/11 A2981 RMK A01 T02650107  RH  037%=      5-min Rain = 0
KSC1 181719Z 16010KT 27/11 A2981 RMK A01 T02660107  RH  037%=      5-min Rain = 0
KSC1 181720Z 17012G17KT 27/11 A298 RMK A01 T02650106  RH  037%=      5-min Rain = 0
KSC1 181721Z 17014KT 27/11 A298 RMK A01 T02650107  RH  037%=      5-min Rain = 0
KSC1 181722Z 19011KT 26/11 A298 RMK A01 T02640106  RH  037%=      5-min Rain = 0
KSC1 181723Z 18009KT 26/11 A298 RMK A01 T02630107  RH  038%=      5-min Rain = 0
KSC1 181724Z 18013KT 27/11 A298 RMK A01 T02660108  RH  037%=      5-min Rain = 0
KSC1 181725Z 18010KT 27/11 A298 RMK A01 T02670108  RH  037%=      5-min Rain = 0
KSC1 181726Z 18008KT 27/11 A298 RMK A01 T02670108  RH  037%=      5-min Rain = 0
KSC1 181727Z 17012KT 27/11 A298 RMK A01 T02690109  RH  037%=      5-min Rain = 0
KSC1 181728Z 16013KT 27/11 A298 RMK A01 T02690107  RH  036%=      5-min Rain = 0
KSC1 181729Z 17011KT 26/11 A298 RMK A01 T02640105  RH  037%=      5-min Rain = 0
KSC1 181730Z 18011KT 26/11 A298 RMK A01 T02620107  RH  038%=      5-min Rain = 0
KSC1 181731Z 18011G16KT 26/11 A298 RMK A01 T02640108  RH  038%=      5-min Rain = 0
KSC1 181732Z 18013KT 27/11 A298 RMK A01 T02650108  RH  037%=      5-min Rain = 0
KSC1 181733Z 17010KT 27/11 A298 RMK A01 T02660108  RH  037%=      5-min Rain = 0
KSC1 181734Z 16009KT 27/11 A298 RMK A01 T02650108  RH  037%=      5-min Rain = 0
KSC1 181735Z 18010KT 27/11 A298 RMK A01 T02670109  RH  037%=      5-min Rain = 0
KSC1 181736Z 19011KT 27/11 A298 RMK A01 T02690109  RH  037%=      5-min Rain = 0
KSC1 181737Z 17013KT 27/11 A298 RMK A01 T02690109  RH  037%=      5-min Rain = 0
KSC1 181738Z 16012G18KT 27/11 A298 RMK A01 T02690109  RH  037%=      5-min Rain = 0
KSC1 181739Z 16013KT 27/11 A298 RMK A01 T02690109  RH  037%=      5-min Rain = 0
KSC1 181740Z 18010KT 27/11 A298 RMK A01 T02670108  RH  037%=      5-min Rain = 0
KSC1 181741Z 16009KT 27/11 A2979 RMK A01 T02680109  RH  037%=      5-min Rain = 0
KSC1 181742Z 17010KT 27/11 A2979 RMK A01 T02690109  RH  037%=      5-min Rain = 0
KSC1 181743Z 20011KT 27/11 A2979 RMK A01 T02700110  RH  037%=      5-min Rain = 0
KSC1 181744Z 20008G13KT 27/11 A2979 RMK A01 T02710110  RH  037%=      5-min Rain = 0
KSC1 181745Z 19010KT 27/11 A2979 RMK A01 T02730111  RH  036%=      5-min Rain = 0
KSC1 181746Z 18009KT 27/11 A2979 RMK A01 T02730110  RH  036%=      5-min Rain = 0
KSC1 181747Z 18012KT 27/11 A2979 RMK A01 T02730110  RH  036%=      5-min Rain = 0
KSC1 181748Z 17012KT 27/11 A2979 RMK A01 T02740110  RH  036%=      5-min Rain = 0
KSC1 181749Z 16011KT 28/11 A2979 RMK A01 T02750110  RH  036%=      5-min Rain = 0
KSC1 181750Z 16012KT 27/11 A2979 RMK A01 T02740110  RH  036%=      5-min Rain = 0
KSC1 181751Z 17011KT 27/11 A2979 RMK A01 T02740110  RH  036%=      5-min Rain = 0
KSC1 181752Z 18010KT 27/11 A2979 RMK A01 T02730110  RH  036%=      5-min Rain = 0
KSC1 181753Z 19013G18KT 27/11 A2979 RMK A01 T02740111  RH  036%=      5-min Rain = 0
KSC1 181754Z 19010KT 27/11 A2979 RMK A01 T02740110  RH  036%=      5-min Rain = 0
KSC1 181755Z 20010KT 27/11 A2979 RMK A01 T02740111  RH  036%=      5-min Rain = 0
KSC1 181756Z 19010KT 28/11 A2979 RMK A01 T02750112  RH  036%=      5-min Rain = 0
KSC1 181757Z 18010KT 28/11 A2979 RMK A01 T02750111  RH  036%=      5-min Rain = 0
KSC1 181758Z 17009G14KT 28/11 A2979 RMK A01 T02760112  RH  036%=      5-min Rain = 0
KSC1 181759Z 17010KT 28/11 A2978 RMK A01 T02790112  RH  036%=      5-min Rain = 0
KSC1 181800Z 16010KT 28/11 A2978 RMK A01 T02800113  RH  035%=      5-min Rain = 0
KSC1 181801Z 15012KT 28/11 A2978 RMK A01 T02810112  RH  035%=      5-min Rain = 0
KSC1 181802Z 17011KT 28/11 A2978 RMK A01 T02800112  RH  035%=      5-min Rain = 0
KSC1 181803Z 19011KT 28/11 A2978 RMK A01 T02800112  RH  035%=      5-min Rain = 0
KSC1 181804Z 19009KT 28/11 A2978 RMK A01 T02780112  RH  035%=      5-min Rain = 0
KSC1 181805Z 18007G12KT 28/11 A2978 RMK A01 T02780113  RH  036%=      5-min Rain = 0
KSC1 181806Z 18011KT 28/11 A2978 RMK A01 T02810114  RH  035%=      5-min Rain = 0
KSC1 181807Z 17009KT 28/11 A2978 RMK A01 T02820113  RH  035%=      5-min Rain = 0
KSC1 181808Z 18010KT 28/11 A2978 RMK A01 T02810112  RH  035%=      5-min Rain = 0
KSC1 181809Z 17010KT 28/11 A2978 RMK A01 T02800112  RH  035%=      5-min Rain = 0
KSC1 181810Z 18011KT 28/11 A2978 RMK A01 T02790112  RH  035%=      5-min Rain = 0
KSC1 181811Z 17014KT 28/11 A2978 RMK A01 T02790113  RH  035%=      5-min Rain = 0
KSC1 181812Z 16009KT 28/11 A2977 RMK A01 T02770112  RH  036%=      5-min Rain = 0
KSC1 181813Z 18009KT 28/11 A2977 RMK A01 T02770113  RH  036%=      5-min Rain = 0
KSC1 181814Z 18009KT 28/11 A2977 RMK A01 T02800114  RH  036%=      5-min Rain = 0
KSC1 181815Z 18014KT 28/11 A2977 RMK A01 T02810114  RH  035%=      5-min Rain = 0
KSC1 181816Z 17013KT 28/11 A2977 RMK A01 T02810114  RH  035%=      5-min Rain = 0
KSC1 181817Z 16011KT 28/11 A2977 RMK A01 T02820114  RH  035%=      5-min Rain = 0
KSC1 181818Z 17011KT 28/12 A2977 RMK A01 T02830116  RH  035%=      5-min Rain = 0
KSC1 181819Z 17012KT 29/12 A2977 RMK A01 T02850115  RH  035%=      5-min Rain = 0
KSC1 181820Z 18009G14KT 28/11 A2977 RMK A01 T02840114  RH  035%=      5-min Rain = 0
KSC1 181821Z 18009G14KT 28/12 A2977 RMK A01 T02820115  RH  035%=      5-min Rain = 0
KSC1 181822Z 17013KT 28/12 A2977 RMK A01 T02840115  RH  035%=      5-min Rain = 0
KSC1 181823Z 17011KT 28/11 A2977 RMK A01 T02840114  RH  035%=      5-min Rain = 0
KSC1 181824Z 18011KT 28/12 A2977 RMK A01 T02840115  RH  035%=      5-min Rain = 0
KSC1 181825Z 18010KT 28/11 A2977 RMK A01 T02840114  RH  035%=      5-min Rain = 0
KSC1 181826Z 18009KT 28/11 A2976 RMK A01 T02810114  RH  035%=      5-min Rain = 0
KSC1 181827Z 18007KT 28/12 A2976 RMK A01 T02810115  RH  036%=      5-min Rain = 0
KSC1 181828Z 18010G18KT 28/12 A2976 RMK A01 T02840116  RH  035%=      5-min Rain = 0
KSC1 181829Z 19013KT 29/12 A2976 RMK A01 T02870116  RH  035%=      5-min Rain = 0
KSC1 181830Z 18014KT 29/12 A2976 RMK A01 T02870116  RH  035%=      5-min Rain = 0
KSC1 181831Z 17011KT 29/12 A2976 RMK A01 T02860116  RH  035%=      5-min Rain = 0
KSC1 181832Z 16009KT 29/12 A2976 RMK A01 T02870116  RH  035%=      5-min Rain = 0
KSC1 181833Z 15007KT 29/12 A2976 RMK A01 T02870116  RH  035%=      5-min Rain = 0
KSC1 181834Z 18008KT 29/12 A2976 RMK A01 T02880116  RH  035%=      5-min Rain = 0
KSC1 181835Z 16011KT 29/12 A2976 RMK A01 T02890116  RH  034%=      5-min Rain = 0
KSC1 181836Z 19008KT 29/12 A2976 RMK A01 T02890117  RH  034%=      5-min Rain = 0
KSC1 181837Z 17011KT 29/12 A2976 RMK A01 T02910117  RH  034%=      5-min Rain = 0
KSC1 181838Z 16010KT 29/12 A2976 RMK A01 T02900116  RH  034%=      5-min Rain = 0
KSC1 181839Z 17011KT 29/12 A2976 RMK A01 T02890116  RH  034%=      5-min Rain = 0
KSC1 181840Z 17009KT 29/12 A2975 RMK A01 T02880116  RH  034%=      5-min Rain = 0
KSC1 181841Z 17010KT 29/12 A2975 RMK A01 T02880116  RH  034%=      5-min Rain = 0
KSC1 181842Z 17009KT 29/12 A2975 RMK A01 T02880117  RH  035%=      5-min Rain = 0
KSC1 181843Z 16011G16KT 29/12 A2975 RMK A01 T02920119  RH  034%=      5-min Rain = 0
KSC1 181844Z 17013KT 30/12 A2975 RMK A01 T02950118  RH  034%=      5-min Rain = 0
KSC1 181845Z 17012KT 29/12 A2975 RMK A01 T02940117  RH  033%=      5-min Rain = 0
KSC1 181846Z 17014KT 29/12 A2975 RMK A01 T02920117  RH  034%=      5-min Rain = 0
KSC1 181847Z 17013KT 29/12 A2975 RMK A01 T02900116  RH  034%=      5-min Rain = 0
KSC1 181848Z 16012KT 29/12 A2975 RMK A01 T02870115  RH  034%=      5-min Rain = 0
KSC1 181849Z 15012KT 28/12 A2975 RMK A01 T02840115  RH  035%=      5-min Rain = 0
KSC1 181850Z 15011KT 28/12 A2975 RMK A01 T02820115  RH  035%=      5-min Rain = 0
KSC1 181851Z 17009G15KT 28/12 A2975 RMK A01 T02820116  RH  036%=      5-min Rain = 0
KSC1 181852Z 16009KT 28/12 A2975 RMK A01 T02840117  RH  035%=      5-min Rain = 0
KSC1 181853Z 16007KT 29/12 A2974 RMK A01 T02860118  RH  035%=      5-min Rain = 0
KSC1 181854Z 17007KT 29/12 A2974 RMK A01 T02890119  RH  035%=      5-min Rain = 0
KSC1 181855Z 16011KT 29/12 A2974 RMK A01 T02930119  RH  034%=      5-min Rain = 0
KSC1 181856Z 14008KT 29/12 A2974 RMK A01 T02940119  RH  034%=      5-min Rain = 0
KSC1 181857Z 16009G14KT 29/12 A2974 RMK A01 T02930118  RH  034%=      5-min Rain = 0
KSC1 181858Z 18008KT 29/12 A2974 RMK A01 T02940119  RH  034%=      5-min Rain = 0
KSC1 181859Z 17010KT 30/12 A2974 RMK A01 T02970120  RH  034%=      5-min Rain = 0
KSC1 181900Z 16013KT 30/12 A2974 RMK A01 T02990120  RH  033%=      5-min Rain = 0
KSC1 181901Z 18010KT 30/12 A2974 RMK A01 T02970119  RH  033%=      5-min Rain = 0
KSC1 181902Z 20008KT 30/12 A2974 RMK A01 T02960119  RH  034%=      5-min Rain = 0
KSC1 181903Z 20008G14KT 30/12 A2974 RMK A01 T02950119  RH  034%=      5-min Rain = 0
KSC1 181904Z 16011KT 30/12 A2974 RMK A01 T02970121  RH  034%=      5-min Rain = 0
KSC1 181905Z 16010KT 30/12 A2974 RMK A01 T02990120  RH  033%=      5-min Rain = 0
KSC1 181906Z 17012KT 30/12 A2974 RMK A01 T03010121  RH  033%=      5-min Rain = 0
KSC1 181907Z 16008KT 30/12 A2974 RMK A01 T03020120  RH  033%=      5-min Rain = 0
KSC1 181908Z 16008KT 30/12 A2974 RMK A01 T03010120  RH  033%=      5-min Rain = 0
KSC1 181909Z 18007KT 30/12 A2974 RMK A01 T03010120  RH  033%=      5-min Rain = 0
KSC1 181910Z 21009G15KT 30/12 A2973 RMK A01 T03010121  RH  033%=      5-min Rain = 0
KSC1 181911Z 18010KT 30/12 A2973 RMK A01 T03020121  RH  033%=      5-min Rain = 0
KSC1 181912Z 17010KT 30/12 A2973 RMK A01 T03000119  RH  033%=      5-min Rain = 0
KSC1 181913Z 20006KT 30/12 A2973 RMK A01 T02990120  RH  033%=      5-min Rain = 0
KSC1 181914Z 19013KT 30/12 A2973 RMK A01 T03020121  RH  033%=      5-min Rain = 0
KSC1 181915Z 20010KT 30/12 A2973 RMK A01 T03020120  RH  033%=      5-min Rain = 0
KSC1 181916Z 21008KT 30/12 A2973 RMK A01 T02990120  RH  033%=      5-min Rain = 0
KSC1 181917Z 21008KT 30/12 A2973 RMK A01 T03010121  RH  033%=      5-min Rain = 0
KSC1 181918Z 20008KT 30/12 A2973 RMK A01 T03020122  RH  033%=      5-min Rain = 0
KSC1 181919Z 19009KT 31/12 A2973 RMK A01 T03050122  RH  033%=      5-min Rain = 0
KSC1 181920Z 18010KT 31/12 A2973 RMK A01 T03060121  RH  032%=      5-min Rain = 0
KSC1 181921Z 18011KT 31/12 A2973 RMK A01 T03060121  RH  032%=      5-min Rain = 0
KSC1 181922Z 18010KT 31/12 A2973 RMK A01 T03050121  RH  032%=      5-min Rain = 0
KSC1 181923Z 19008KT 30/12 A2972 RMK A01 T03020120  RH  032%=      5-min Rain = 0
KSC1 181924Z 19007KT 30/12 A2972 RMK A01 T03000120  RH  033%=      5-min Rain = 0
KSC1 181925Z 18010G15KT 30/12 A2972 RMK A01 T03010122  RH  033%=      5-min Rain = 0
KSC1 181926Z 20007KT 30/12 A2972 RMK A01 T03040122  RH  033%=      5-min Rain = 0
KSC1 181927Z 18010KT 31/12 A2972 RMK A01 T03080124  RH  032%=      5-min Rain = 0
KSC1 181928Z 16010G18KT 31/12 A2972 RMK A01 T03110123  RH  032%=      5-min Rain = 0
KSC1 181929Z 18010KT 31/12 A2972 RMK A01 T03100122  RH  031%=      5-min Rain = 0
KSC1 181930Z 20008KT 31/12 A2972 RMK A01 T03100122  RH  032%=      5-min Rain = 0
KSC1 181931Z 19009KT 31/12 A2972 RMK A01 T03100122  RH  032%=      5-min Rain = 0
KSC1 181932Z 20012KT 31/12 A2972 RMK A01 T03120121  RH  031%=      5-min Rain = 0
KSC1 181933Z 19010KT 31/12 A2972 RMK A01 T03100120  RH  031%=      5-min Rain = 0
KSC1 181934Z 19011KT 31/12 A2972 RMK A01 T03090120  RH  031%=      5-min Rain = 0
KSC1 181935Z 19009KT 31/12 A2972 RMK A01 T03080120  RH  031%=      5-min Rain = 0
KSC1 181936Z 17008KT 31/12 A2971 RMK A01 T03080121  RH  032%=      5-min Rain = 0
KSC1 181937Z 20009KT 31/12 A2972 RMK A01 T03100122  RH  032%=      5-min Rain = 0
KSC1 181938Z 21010KT 31/12 A2971 RMK A01 T03100122  RH  032%=      5-min Rain = 0
KSC1 181939Z 18013KT 31/12 A2972 RMK A01 T03090122  RH  032%=      5-min Rain = 0
KSC1 181940Z 19010KT 31/12 A2972 RMK A01 T03070121  RH  032%=      5-min Rain = 0
KSC1 181941Z 19010KT 31/12 A2972 RMK A01 T03060120  RH  032%=      5-min Rain = 0
KSC1 181942Z 16008KT 31/12 A2971 RMK A01 T03050120  RH  032%=      5-min Rain = 0
KSC1 181943Z 17010KT 30/12 A2971 RMK A01 T03040120  RH  032%=      5-min Rain = 0
KSC1 181944Z 16012KT 31/12 A2971 RMK A01 T03050120  RH  032%=      5-min Rain = 0
KSC1 181945Z 19013KT 31/12 A2971 RMK A01 T03060120  RH  032%=      5-min Rain = 0
KSC1 181946Z 19013KT 30/12 A2971 RMK A01 T03040118  RH  032%=      5-min Rain = 0
KSC1 181947Z 19012KT 30/12 A2971 RMK A01 T03000118  RH  033%=      5-min Rain = 0
KSC1 181948Z 18009G14KT 30/12 A2971 RMK A01 T02980119  RH  033%=      5-min Rain = 0
KSC1 181949Z 18012KT 30/12 A2971 RMK A01 T02980119  RH  033%=      5-min Rain = 0
KSC1 181950Z 18010KT 30/12 A2971 RMK A01 T03000120  RH  033%=      5-min Rain = 0
KSC1 181951Z 19010KT 30/12 A2971 RMK A01 T03020120  RH  033%=      5-min Rain = 0
KSC1 181952Z 19011KT 30/12 A2971 RMK A01 T03000118  RH  033%=      5-min Rain = 0
KSC1 181953Z 18010KT 30/12 A2971 RMK A01 T02970119  RH  033%=      5-min Rain = 0
KSC1 181954Z 20011KT 30/12 A2971 RMK A01 T02980120  RH  033%=      5-min Rain = 0
KSC1 181955Z 20013KT 30/12 A2971 RMK A01 T02990119  RH  033%=      5-min Rain = 0
KSC1 181956Z 19009KT 30/12 A2971 RMK A01 T02990120  RH  033%=      5-min Rain = 0
KSC1 181957Z 18009KT 30/12 A2971 RMK A01 T03000121  RH  033%=      5-min Rain = 0
KSC1 181958Z 18011KT 30/12 A2971 RMK A01 T03040121  RH  033%=      5-min Rain = 0
KSC1 181959Z 18010KT 30/12 A2971 RMK A01 T03040119  RH  032%=      5-min Rain = 0
KSC1 182000Z 18007KT 30/12 A297 RMK A01 T03030119  RH  032%=      5-min Rain = 0
KSC1 182001Z 16009KT 30/12 A297 RMK A01 T03020120  RH  033%=      5-min Rain = 0
KSC1 182002Z 16009KT 30/12 A297 RMK A01 T03040120  RH  032%=      5-min Rain = 0
KSC1 182003Z 16006KT 30/12 A297 RMK A01 T03040119  RH  032%=      5-min Rain = 0
KSC1 182004Z 20009KT 30/12 A297 RMK A01 T03040120  RH  032%=      5-min Rain = 0
KSC1 182005Z 20010KT 30/12 A297 RMK A01 T03030119  RH  032%=      5-min Rain = 0
KSC1 182006Z 18010KT 30/12 A297 RMK A01 T03010120  RH  033%=      5-min Rain = 0
KSC1 182007Z 19008KT 30/12 A297 RMK A01 T03040121  RH  033%=      5-min Rain = 0
KSC1 182008Z 19009KT 31/12 A297 RMK A01 T03060121  RH  032%=      5-min Rain = 0
KSC1 182009Z 18007KT 31/12 A297 RMK A01 T03060121  RH  032%=      5-min Rain = 0
KSC1 182010Z 20007KT 31/12 A297 RMK A01 T03070121  RH  032%=      5-min Rain = 0
KSC1 182011Z 17010KT 31/12 A297 RMK A01 T03080121  RH  032%=      5-min Rain = 0
KSC1 182012Z 16010KT 31/12 A297 RMK A01 T03090121  RH  031%=      5-min Rain = 0
KSC1 182013Z 15008KT 31/12 A297 RMK A01 T03090120  RH  031%=      5-min Rain = 0
KSC1 182014Z 17009KT 31/12 A297 RMK A01 T03060120  RH  032%=      5-min Rain = 0
KSC1 182015Z 18007KT 31/12 A297 RMK A01 T03050120  RH  032%=      5-min Rain = 0
KSC1 182016Z 16008KT 31/12 A297 RMK A01 T03050120  RH  032%=      5-min Rain = 0
KSC1 182017Z 15008KT 30/12 A297 RMK A01 T03040120  RH  032%=      5-min Rain = 0
KSC1 182018Z 17009KT 30/12 A297 RMK A01 T03040120  RH  032%=      5-min Rain = 0
KSC1 182019Z 18011KT 30/12 A297 RMK A01 T03040120  RH  032%=      5-min Rain = 0
KSC1 182020Z 18007KT 30/12 A2969 RMK A01 T03040120  RH  032%=      5-min Rain = 0
KSC1 182021Z 18005KT 30/12 A2969 RMK A01 T03040121  RH  032%=      5-min Rain = 0
KSC1 182022Z 15010KT 31/12 A2969 RMK A01 T03080122  RH  032%=      5-min Rain = 0
KSC1 182023Z 16009KT 31/12 A2969 RMK A01 T03110121  RH  031%=      5-min Rain = 0
KSC1 182024Z 16008KT 31/12 A2969 RMK A01 T03100121  RH  031%=      5-min Rain = 0
KSC1 182025Z 19010KT 31/12 A2969 RMK A01 T03110122  RH  031%=      5-min Rain = 0
KSC1 182026Z 18011KT 31/12 A2969 RMK A01 T03130121  RH  031%=      5-min Rain = 0
KSC1 182027Z 17012KT 31/12 A2969 RMK A01 T03130121  RH  031%=      5-min Rain = 0
KSC1 182028Z 18010G15KT 31/12 A2969 RMK A01 T03120121  RH  031%=      5-min Rain = 0
KSC1 182029Z 17009KT 31/12 A2969 RMK A01 T03120122  RH  031%=      5-min Rain = 0
KSC1 182030Z 18014KT 31/12 A2969 RMK A01 T03130122  RH  031%=      5-min Rain = 0
KSC1 182031Z 18011KT 31/12 A2969 RMK A01 T03120121  RH  031%=      5-min Rain = 0
KSC1 182032Z 17010KT 31/12 A2969 RMK A01 T03100121  RH  031%=      5-min Rain = 0
KSC1 182033Z 17012KT 31/12 A2969 RMK A01 T03090121  RH  031%=      5-min Rain = 0
KSC1 182034Z 18012KT 31/12 A2969 RMK A01 T03110121  RH  031%=      5-min Rain = 0
KSC1 182035Z 19010KT 31/12 A2969 RMK A01 T03120122  RH  031%=      5-min Rain = 0
KSC1 182036Z 18014KT 31/12 A2969 RMK A01 T03140122  RH  031%=      5-min Rain = 0
KSC1 182037Z 17013KT 31/12 A2969 RMK A01 T03130121  RH  031%=      5-min Rain = 0
KSC1 182038Z 15011KT 31/12 A2969 RMK A01 T03110120  RH  031%=      5-min Rain = 0
KSC1 182039Z 16007KT 31/12 A2969 RMK A01 T03080120  RH  032%=      5-min Rain = 0
KSC1 182040Z 17004KT 31/12 A2969 RMK A01 T03060120  RH  032%=      5-min Rain = 0
KSC1 182041Z 17008KT 31/12 A2969 RMK A01 T03070122  RH  032%=      5-min Rain = 0
KSC1 182042Z 17008KT 31/12 A2968 RMK A01 T03100121  RH  031%=      5-min Rain = 0
KSC1 182043Z 16009KT 31/12 A2968 RMK A01 T03100121  RH  031%=      5-min Rain = 0
KSC1 182044Z 17008KT 31/12 A2968 RMK A01 T03130122  RH  031%=      5-min Rain = 0
KSC1 182045Z 19008KT 32/12 A2968 RMK A01 T03150122  RH  031%=      5-min Rain = 0
KSC1 182046Z 14008G13KT 32/12 A2968 RMK A01 T03170123  RH  031%=      5-min Rain = 0
KSC1 182047Z 16011KT 32/12 A2968 RMK A01 T03190122  RH  030%=      5-min Rain = 0
KSC1 182048Z 18011KT 32/12 A2968 RMK A01 T03210122  RH  030%=      5-min Rain = 0
KSC1 182049Z 18009KT 32/12 A2968 RMK A01 T03190120  RH  030%=      5-min Rain = 0
KSC1 182050Z 18008KT 32/12 A2968 RMK A01 T03150121  RH  030%=      5-min Rain = 0
KSC1 182051Z 19008KT 32/12 A2968 RMK A01 T03170122  RH  030%=      5-min Rain = 0
KSC1 182052Z 19009KT 32/12 A2968 RMK A01 T03200122  RH  030%=      5-min Rain = 0
KSC1 182053Z 19010KT 32/12 A2968 RMK A01 T03230121  RH  029%=      5-min Rain = 0
KSC1 182054Z 18010KT 32/12 A2968 RMK A01 T03240120  RH  029%=      5-min Rain = 0
KSC1 182055Z 19010KT 32/12 A2968 RMK A01 T03240120  RH  029%=      5-min Rain = 0
KSC1 182056Z 22007KT 32/12 A2968 RMK A01 T03240118  RH  028%=      5-min Rain = 0
KSC1 182057Z 24007G12KT 32/12 A2968 RMK A01 T03230117  RH  028%=      5-min Rain = 0
KSC1 182058Z 24007KT 32/12 A2968 RMK A01 T03230117  RH  029%=      5-min Rain = 0
KSC1 182059Z 23005KT 32/12 A2969 RMK A01 T03230117  RH  028%=      5-min Rain = 0
KSC1 182100Z 20008KT 32/12 A2968 RMK A01 T03240118  RH  028%=      5-min Rain = 0
KSC1 182101Z 20011KT 33/12 A2968 RMK A01 T03270118  RH  028%=      5-min Rain = 0
KSC1 182102Z 21010G15KT 32/12 A2968 RMK A01 T03230116  RH  028%=      5-min Rain = 0
KSC1 182103Z 22011KT 32/12 A2969 RMK A01 T03180116  RH  029%=      5-min Rain = 0
KSC1 182104Z 22010KT 31/11 A2969 RMK A01 T03130114  RH  029%=      5-min Rain = 0
KSC1 182105Z 23005KT 31/11 A2968 RMK A01 T03090114  RH  030%=      5-min Rain = 0
KSC1 182106Z 23006KT 31/12 A2968 RMK A01 T03090116  RH  030%=      5-min Rain = 0
KSC1 182107Z 21007KT 31/12 A2968 RMK A01 T03130118  RH  030%=      5-min Rain = 0
KSC1 182108Z 20008KT 32/12 A2968 RMK A01 T03160118  RH  030%=      5-min Rain = 0
KSC1 182109Z 22010KT 32/12 A2968 RMK A01 T03170118  RH  030%=      5-min Rain = 0
KSC1 182110Z 23007KT 31/12 A2968 RMK A01 T03140118  RH  030%=      5-min Rain = 0
KSC1 182111Z 22007KT 31/12 A2968 RMK A01 T03110118  RH  031%=      5-min Rain = 0
KSC1 182112Z 23004KT 31/12 A2968 RMK A01 T03090118  RH  031%=      5-min Rain = 0
KSC1 182113Z 22005KT 31/12 A2968 RMK A01 T03090118  RH  031%=      5-min Rain = 0
KSC1 182114Z 23006KT 31/12 A2968 RMK A01 T03120119  RH  031%=      5-min Rain = 0
KSC1 182115Z 21005KT 31/12 A2968 RMK A01 T03130118  RH  030%=      5-min Rain = 0
KSC1 182116Z 19006KT 31/12 A2968 RMK A01 T03140119  RH  030%=      5-min Rain = 0
KSC1 182117Z 18008G14KT 32/12 A2968 RMK A01 T03160119  RH  030%=      5-min Rain = 0
KSC1 182118Z 19011KT 32/12 A2968 RMK A01 T03180119  RH  030%=      5-min Rain = 0
KSC1 182119Z 20009KT 32/12 A2968 RMK A01 T03200120  RH  029%=      5-min Rain = 0
KSC1 182120Z 19009KT 32/12 A2968 RMK A01 T03210119  RH  029%=      5-min Rain = 0
KSC1 182121Z 18007KT 32/12 A2968 RMK A01 T03160117  RH  030%=      5-min Rain = 0
KSC1 182122Z 17011KT 31/12 A2968 RMK A01 T03130117  RH  030%=      5-min Rain = 0
KSC1 182123Z 18011KT 31/12 A2968 RMK A01 T03130117  RH  030%=      5-min Rain = 0
KSC1 182124Z 19009KT 31/12 A2968 RMK A01 T03140116  RH  030%=      5-min Rain = 0
KSC1 182125Z 20009KT 32/12 A2968 RMK A01 T03160116  RH  029%=      5-min Rain = 0
KSC1 182126Z 22009G14KT 32/12 A2968 RMK A01 T03190116  RH  029%=      5-min Rain = 0
KSC1 182127Z 22010KT 32/12 A2968 RMK A01 T03200115  RH  028%=      5-min Rain = 0
KSC1 182128Z 23010KT 32/11 A2968 RMK A01 T03160113  RH  029%=      5-min Rain = 0
KSC1 182129Z 22010KT 31/11 A2968 RMK A01 T03130113  RH  029%=      5-min Rain = 0
KSC1 182130Z 21009KT 31/11 A2968 RMK A01 T03120114  RH  030%=      5-min Rain = 0
KSC1 182131Z 22006KT 31/11 A2968 RMK A01 T03100113  RH  030%=      5-min Rain = 0
KSC1 182132Z 23009KT 31/11 A2968 RMK A01 T03100114  RH  030%=      5-min Rain = 0
KSC1 182133Z 22007KT 31/11 A2968 RMK A01 T03090114  RH  030%=      5-min Rain = 0
KSC1 182134Z 21008KT 31/11 A2968 RMK A01 T03080114  RH  030%=      5-min Rain = 0
KSC1 182135Z 19008KT 31/11 A2968 RMK A01 T03070114  RH  030%=      5-min Rain = 0
KSC1 182136Z 20009KT 31/11 A2968 RMK A01 T03060114  RH  031%=      5-min Rain = 0
KSC1 182137Z 21011KT 31/11 A2968 RMK A01 T03060114  RH  031%=      5-min Rain = 0
KSC1 182138Z 20007KT 31/12 A2968 RMK A01 T03090116  RH  030%=      5-min Rain = 0
KSC1 182139Z 20006KT 31/12 A2968 RMK A01 T03130117  RH  030%=      5-min Rain = 0
KSC1 182140Z 20006KT 32/12 A2968 RMK A01 T03160117  RH  030%=      5-min Rain = 0
KSC1 182141Z 19011KT 32/12 A2968 RMK A01 T03200117  RH  029%=      5-min Rain = 0
KSC1 182142Z 19009KT 32/12 A2968 RMK A01 T03200115  RH  029%=      5-min Rain = 0
KSC1 182143Z 20010KT 32/12 A2968 RMK A01 T03190115  RH  029%=      5-min Rain = 0
KSC1 182144Z 19008KT 32/12 A2968 RMK A01 T03180115  RH  029%=      5-min Rain = 0
KSC1 182145Z 18006KT 32/12 A2968 RMK A01 T03170115  RH  029%=      5-min Rain = 0
KSC1 182146Z 20007KT 32/12 A2968 RMK A01 T03190116  RH  029%=      5-min Rain = 0
KSC1 182147Z 19010KT 32/12 A2968 RMK A01 T03210116  RH  029%=      5-min Rain = 0
KSC1 182148Z 21009KT 32/11 A2968 RMK A01 T03200114  RH  028%=      5-min Rain = 0
KSC1 182149Z 21009KT 32/11 A2968 RMK A01 T03190114  RH  028%=      5-min Rain = 0
KSC1 182150Z 23010KT 32/11 A2968 RMK A01 T03200112  RH  028%=      5-min Rain = 0
KSC1 182151Z 23010KT 32/11 A2968 RMK A01 T03200111  RH  028%=      5-min Rain = 0
KSC1 182152Z 23008KT 32/11 A2968 RMK A01 T03200111  RH  028%=      5-min Rain = 0
KSC1 182153Z 21006KT 32/11 A2968 RMK A01 T03190111  RH  028%=      5-min Rain = 0
KSC1 182154Z 24008KT 32/11 A2968 RMK A01 T03200111  RH  028%=      5-min Rain = 0
KSC1 182155Z 24008KT 32/11 A2968 RMK A01 T03210110  RH  028%=      5-min Rain = 0
KSC1 182156Z 25007KT 32/11 A2968 RMK A01 T03210110  RH  027%=      5-min Rain = 0
KSC1 182157Z 25005KT 32/11 A2968 RMK A01 T03200109  RH  027%=      5-min Rain = 0
KSC1 182158Z 24006KT 32/11 A2968 RMK A01 T03190110  RH  028%=      5-min Rain = 0
KSC1 182159Z 22008KT 32/11 A2968 RMK A01 T03190111  RH  028%=      5-min Rain = 0
KSC1 182200Z 20007KT 32/11 A2968 RMK A01 T03210111  RH  028%=      5-min Rain = 0
KSC1 182201Z 20009KT 32/11 A2967 RMK A01 T03210112  RH  028%=      5-min Rain = 0
KSC1 182202Z 21008KT 32/11 A2967 RMK A01 T03200112  RH  028%=      5-min Rain = 0
KSC1 182203Z 21007KT 32/11 A2967 RMK A01 T03190112  RH  028%=      5-min Rain = 0
KSC1 182204Z 17007KT 32/11 A2967 RMK A01 T03200112  RH  028%=      5-min Rain = 0
KSC1 182205Z 17009KT 32/11 A2967 RMK A01 T03200111  RH  028%=      5-min Rain = 0
KSC1 182206Z 19008KT 32/11 A2967 RMK A01 T03200111  RH  028%=      5-min Rain = 0
KSC1 182207Z 20006KT 32/11 A2967 RMK A01 T03200109  RH  027%=      5-min Rain = 0
KSC1 182208Z 20008KT 32/11 A2967 RMK A01 T03190108  RH  027%=      5-min Rain = 0
KSC1 182209Z 20008KT 32/11 A2967 RMK A01 T03180108  RH  028%=      5-min Rain = 0
KSC1 182210Z 21006KT 32/11 A2967 RMK A01 T03170106  RH  027%=      5-min Rain = 0
KSC1 182211Z 23005KT 32/10 A2967 RMK A01 T03170103  RH  027%=      5-min Rain = 0
KSC1 182212Z 20005KT 32/11 A2967 RMK A01 T03180105  RH  027%=      5-min Rain = 0
KSC1 182213Z 23008KT 32/11 A2967 RMK A01 T03210106  RH  027%=      5-min Rain = 0
KSC1 182214Z 23009KT 32/11 A2967 RMK A01 T03210105  RH  026%=      5-min Rain = 0
KSC1 182215Z 22010KT 32/11 A2967 RMK A01 T03210106  RH  027%=      5-min Rain = 0
KSC1 182216Z 23009KT 32/11 A2967 RMK A01 T03200107  RH  027%=      5-min Rain = 0
KSC1 182217Z 23008KT 32/11 A2967 RMK A01 T03190108  RH  027%=      5-min Rain = 0
KSC1 182218Z 23008KT 32/11 A2967 RMK A01 T03190108  RH  027%=      5-min Rain = 0
KSC1 182219Z 22008G13KT 32/11 A2967 RMK A01 T03190109  RH  028%=      5-min Rain = 0
KSC1 182220Z 23010KT 32/11 A2967 RMK A01 T03190109  RH  028%=      5-min Rain = 0
KSC1 182221Z 21005KT 32/11 A2967 RMK A01 T03180108  RH  028%=      5-min Rain = 0
KSC1 182222Z 21009KT 32/11 A2967 RMK A01 T03180108  RH  028%=      5-min Rain = 0
KSC1 182223Z 21009KT 32/11 A2967 RMK A01 T03180108  RH  028%=      5-min Rain = 0
KSC1 182224Z 22008KT 32/11 A2967 RMK A01 T03160107  RH  028%=      5-min Rain = 0
KSC1 182225Z 21010KT 31/11 A2967 RMK A01 T03130107  RH  028%=      5-min Rain = 0
KSC1 182226Z 22008KT 31/11 A2967 RMK A01 T03110107  RH  028%=      5-min Rain = 0
KSC1 182227Z 22007KT 31/11 A2967 RMK A01 T03110107  RH  028%=      5-min Rain = 0
KSC1 182228Z 22005KT 31/11 A2967 RMK A01 T03110106  RH  028%=      5-min Rain = 0
KSC1 182229Z 22008KT 31/11 A2967 RMK A01 T03130108  RH  028%=      5-min Rain = 0
KSC1 182230Z 22009G14KT 31/11 A2967 RMK A01 T03140107  RH  028%=      5-min Rain = 0
KSC1 182231Z 23010KT 32/10 A2967 RMK A01 T03150104  RH  027%=      5-min Rain = 0
KSC1 182232Z 23010KT 31/10 A2967 RMK A01 T03140103  RH  027%=      5-min Rain = 0
KSC1 182233Z 24007KT 31/10 A2967 RMK A01 T03140102  RH  027%=      5-min Rain = 0
KSC1 182234Z 23009KT 31/10 A2967 RMK A01 T03130102  RH  027%=      5-min Rain = 0
KSC1 182235Z 22008KT 31/10 A2967 RMK A01 T03140103  RH  027%=      5-min Rain = 0
KSC1 182236Z 20007KT 31/10 A2967 RMK A01 T03140103  RH  027%=      5-min Rain = 0
KSC1 182237Z 19008KT 31/10 A2967 RMK A01 T03130103  RH  027%=      5-min Rain = 0
KSC1 182238Z 20009KT 31/10 A2967 RMK A01 T03110103  RH  028%=      5-min Rain = 0
KSC1 182239Z 19008KT 31/10 A2967 RMK A01 T03090103  RH  028%=      5-min Rain = 0
KSC1 182240Z 19008KT 31/10 A2967 RMK A01 T03080104  RH  028%=      5-min Rain = 0
KSC1 182241Z 19009KT 31/10 A2967 RMK A01 T03060104  RH  029%=      5-min Rain = 0
KSC1 182242Z 20009KT 31/11 A2967 RMK A01 T03070106  RH  029%=      5-min Rain = 0
KSC1 182243Z 19011KT 31/11 A2967 RMK A01 T03090107  RH  029%=      5-min Rain = 0
KSC1 182244Z 19009KT 31/11 A2967 RMK A01 T03090107  RH  029%=      5-min Rain = 0
KSC1 182245Z 19009KT 31/11 A2967 RMK A01 T03080108  RH  029%=      5-min Rain = 0
KSC1 182246Z 20009KT 31/11 A2967 RMK A01 T03070107  RH  029%=      5-min Rain = 0
KSC1 182247Z 20010KT 31/11 A2967 RMK A01 T03070108  RH  029%=      5-min Rain = 0
KSC1 182248Z 20008KT 31/11 A2967 RMK A01 T03070108  RH  029%=      5-min Rain = 0
KSC1 182249Z 21007KT 31/11 A2967 RMK A01 T03070107  RH  029%=      5-min Rain = 0
KSC1 182250Z 19007KT 31/11 A2967 RMK A01 T03070107  RH  029%=      5-min Rain = 0
KSC1 182251Z 19008KT 31/11 A2967 RMK A01 T03070107  RH  029%=      5-min Rain = 0
KSC1 182252Z 17009KT 31/11 A2967 RMK A01 T03060107  RH  029%=      5-min Rain = 0
KSC1 182253Z 17010KT 31/11 A2967 RMK A01 T03050106  RH  029%=      5-min Rain = 0
KSC1 182254Z 18010KT 30/11 A2967 RMK A01 T03040106  RH  029%=      5-min Rain = 0
KSC1 182255Z 20007KT 30/11 A2967 RMK A01 T03030106  RH  030%=      5-min Rain = 0
KSC1 182256Z 20005KT 30/11 A2967 RMK A01 T03020107  RH  030%=      5-min Rain = 0
KSC1 182257Z 19008G13KT 30/11 A2967 RMK A01 T03010106  RH  030%=      5-min Rain = 0
KSC1 182258Z 19009KT 30/11 A2967 RMK A01 T03010107  RH  030%=      5-min Rain = 0
KSC1 182259Z 20008KT 30/11 A2967 RMK A01 T03010106  RH  030%=      5-min Rain = 0
KSC1 182300Z 19008KT 30/11 A2967 RMK A01 T03010106  RH  030%=      5-min Rain = 0
KSC1 182301Z 19010KT 30/11 A2967 RMK A01 T03010106  RH  030%=      5-min Rain = 0
KSC1 182302Z 19008KT 30/11 A2967 RMK A01 T03010106  RH  030%=      5-min Rain = 0
KSC1 182303Z 20008KT 30/11 A2967 RMK A01 T03010106  RH  030%=      5-min Rain = 0
KSC1 182304Z 20008KT 30/11 A2967 RMK A01 T03010105  RH  030%=      5-min Rain = 0
KSC1 182305Z 19009KT 30/11 A2967 RMK A01 T03010106  RH  030%=      5-min Rain = 0
KSC1 182306Z 20006KT 30/11 A2967 RMK A01 T03010106  RH  030%=      5-min Rain = 0
KSC1 182307Z 20007KT 30/11 A2967 RMK A01 T03010106  RH  030%=      5-min Rain = 0
KSC1 182308Z 19006KT 30/11 A2967 RMK A01 T03010106  RH  030%=      5-min Rain = 0
KSC1 182309Z 19007KT 30/11 A2967 RMK A01 T03010106  RH  030%=      5-min Rain = 0
KSC1 182310Z 19007KT 30/11 A2967 RMK A01 T03010106  RH  030%=      5-min Rain = 0
KSC1 182311Z 19007KT 30/11 A2967 RMK A01 T03000106  RH  030%=      5-min Rain = 0
KSC1 182312Z 18007KT 30/11 A2967 RMK A01 T03000106  RH  030%=      5-min Rain = 0
KSC1 182313Z 20009KT 30/11 A2967 RMK A01 T03000106  RH  030%=      5-min Rain = 0
KSC1 182314Z 20007KT 30/11 A2967 RMK A01 T03000107  RH  030%=      5-min Rain = 0
KSC1 182315Z 20006KT 30/11 A2967 RMK A01 T03000107  RH  030%=      5-min Rain = 0
KSC1 182316Z 20008KT 30/11 A2967 RMK A01 T03000107  RH  030%=      5-min Rain = 0
KSC1 182317Z 18006KT 30/11 A2967 RMK A01 T03000107  RH  030%=      5-min Rain = 0
KSC1 182318Z 19007KT 30/11 A2967 RMK A01 T03000107  RH  030%=      5-min Rain = 0
KSC1 182319Z 18005KT 30/11 A2967 RMK A01 T03000107  RH  030%=      5-min Rain = 0
KSC1 182320Z 17007KT 30/11 A2967 RMK A01 T03000108  RH  030%=      5-min Rain = 0
KSC1 182321Z 17007KT 30/11 A2967 RMK A01 T03010109  RH  031%=      5-min Rain = 0
KSC1 182322Z 18007KT 30/11 A2967 RMK A01 T03020110  RH  031%=      5-min Rain = 0
KSC1 182323Z 18007KT 30/11 A2967 RMK A01 T03020110  RH  030%=      5-min Rain = 0
KSC1 182324Z 18009KT 30/11 A2967 RMK A01 T03020110  RH  030%=      5-min Rain = 0
KSC1 182325Z 18007KT 30/11 A2967 RMK A01 T03030110  RH  030%=      5-min Rain = 0
KSC1 182326Z 19007KT 30/11 A2967 RMK A01 T03030111  RH  030%=      5-min Rain = 0
KSC1 182327Z 19008KT 30/11 A2967 RMK A01 T03030110  RH  030%=      5-min Rain = 0
KSC1 182328Z 17008KT 30/11 A2967 RMK A01 T03030110  RH  030%=      5-min Rain = 0
KSC1 182329Z 18005KT 30/11 A2967 RMK A01 T03020111  RH  031%=      5-min Rain = 0
KSC1 182330Z 18007KT 30/11 A2967 RMK A01 T03020111  RH  031%=      5-min Rain = 0
KSC1 182331Z 17007KT 30/11 A2967 RMK A01 T03010111  RH  031%=      5-min Rain = 0
KSC1 182332Z 17011KT 30/11 A2967 RMK A01 T03010111  RH  031%=      5-min Rain = 0
KSC1 182333Z 17010KT 30/11 A2967 RMK A01 T03010111  RH  031%=      5-min Rain = 0
KSC1 182334Z 17009KT 30/11 A2967 RMK A01 T03010111  RH  031%=      5-min Rain = 0
KSC1 182335Z 16009KT 30/11 A2967 RMK A01 T03010111  RH  031%=      5-min Rain = 0
KSC1 182336Z 17009KT 30/11 A2967 RMK A01 T03020111  RH  031%=      5-min Rain = 0
KSC1 182337Z 17011KT 30/11 A2967 RMK A01 T03020111  RH  031%=      5-min Rain = 0
KSC1 182338Z 16010KT 30/11 A2967 RMK A01 T03010111  RH  031%=      5-min Rain = 0
KSC1 182339Z 17008KT 30/11 A2967 RMK A01 T03000110  RH  031%=      5-min Rain = 0
KSC1 182340Z 17007KT 30/11 A2967 RMK A01 T03000110  RH  031%=      5-min Rain = 0
KSC1 182341Z 17007KT 30/11 A2967 RMK A01 T02990110  RH  031%=      5-min Rain = 0
KSC1 182342Z 17008G14KT 30/11 A2967 RMK A01 T02990110  RH  031%=      5-min Rain = 0
KSC1 182343Z 18011KT 30/11 A2967 RMK A01 T02980111  RH  031%=      5-min Rain = 0
KSC1 182344Z 17008KT 30/11 A2967 RMK A01 T02970111  RH  032%=      5-min Rain = 0
KSC1 182345Z 17011KT 30/11 A2967 RMK A01 T02960111  RH  032%=      5-min Rain = 0
KSC1 182346Z 17009KT 30/11 A2967 RMK A01 T02960111  RH  032%=      5-min Rain = 0
KSC1 182347Z 18011KT 30/11 A2967 RMK A01 T02950112  RH  032%=      5-min Rain = 0
KSC1 182348Z 18009KT 30/11 A2967 RMK A01 T02950112  RH  032%=      5-min Rain = 0
KSC1 182349Z 17009KT 29/11 A2967 RMK A01 T02940112  RH  032%=      5-min Rain = 0
KSC1 182350Z 18008KT 29/11 A2967 RMK A01 T02940112  RH  032%=      5-min Rain = 0
KSC1 182351Z 18010KT 29/11 A2967 RMK A01 T02930112  RH  033%=      5-min Rain = 0
KSC1 182352Z 18009KT 29/11 A2967 RMK A01 T02930112  RH  033%=      5-min Rain = 0
KSC1 182353Z 18009KT 29/11 A2967 RMK A01 T02920112  RH  033%=      5-min Rain = 0
KSC1 182354Z 18009KT 29/11 A2967 RMK A01 T02920112  RH  033%=      5-min Rain = 0
KSC1 182355Z 18010KT 29/11 A2968 RMK A01 T02920112  RH  033%=      5-min Rain = 0
KSC1 182356Z 18010KT 29/11 A2968 RMK A01 T02920113  RH  033%=      5-min Rain = 0
KSC1 182357Z 18009KT 29/11 A2968 RMK A01 T02920113  RH  033%=      5-min Rain = 0
KSC1 182358Z 18009KT 29/11 A2968 RMK A01 T02910113  RH  033%=      5-min Rain = 0
KSC1 182359Z 18009KT 29/11 A2968 RMK A01 T02900112  RH  033%=      5-min Rain = 0
KSC1 190000Z 18009KT 29/11 A2968 RMK A01 T02900113  RH  033%=      5-min Rain = 0
KSC1 190001Z 18007KT 29/11 A2968 RMK A01 T02900113  RH  033%=      5-min Rain = 0
KSC1 190002Z 18008KT 29/11 A2968 RMK A01 T02890113  RH  034%=      5-min Rain = 0
KSC1 190003Z 18007KT 29/11 A2968 RMK A01 T02880112  RH  034%=      5-min Rain = 0
KSC1 190004Z 18007KT 29/11 A2968 RMK A01 T02870113  RH  034%=      5-min Rain = 0
KSC1 190005Z 18007KT 29/11 A2968 RMK A01 T02870113  RH  034%=      5-min Rain = 0
KSC1 190006Z 18007KT 29/11 A2968 RMK A01 T02870113  RH  034%=      5-min Rain = 0
KSC1 190007Z 18009KT 29/11 A2968 RMK A01 T02860113  RH  034%=      5-min Rain = 0
KSC1 190008Z 17007KT 29/11 A2968 RMK A01 T02860113  RH  034%=      5-min Rain = 0
KSC1 190009Z 17007KT 29/11 A2968 RMK A01 T02860113  RH  034%=      5-min Rain = 0
KSC1 190010Z 17007KT 29/11 A2968 RMK A01 T02850113  RH  034%=      5-min Rain = 0
KSC1 190011Z 17006KT 28/11 A2968 RMK A01 T02840113  RH  035%=      5-min Rain = 0
KSC1 190012Z 17007KT 28/11 A2968 RMK A01 T02830113  RH  035%=      5-min Rain = 0
KSC1 190013Z 17007KT 28/11 A2968 RMK A01 T02820113  RH  035%=      5-min Rain = 0
KSC1 190014Z 16006KT 28/11 A2968 RMK A01 T02810113  RH  035%=      5-min Rain = 0
KSC1 190015Z 17007KT 28/11 A2968 RMK A01 T02800113  RH  035%=      5-min Rain = 0
KSC1 190016Z 17007KT 28/11 A2968 RMK A01 T02790113  RH  036%=      5-min Rain = 0
KSC1 190017Z 16006KT 28/11 A2968 RMK A01 T02790114  RH  036%=      5-min Rain = 0
KSC1 190018Z 16007KT 28/11 A2968 RMK A01 T02780113  RH  036%=      5-min Rain = 0
KSC1 190019Z 17007KT 28/11 A2968 RMK A01 T02770113  RH  036%=      5-min Rain = 0
KSC1 190020Z 17006KT 28/11 A2968 RMK A01 T02760114  RH  036%=      5-min Rain = 0
KSC1 190021Z 17006KT 28/11 A2968 RMK A01 T02750113  RH  036%=      5-min Rain = 0
KSC1 190022Z 16006KT 27/11 A2968 RMK A01 T02740113  RH  037%=      5-min Rain = 0
KSC1 190023Z 17006KT 27/11 A2968 RMK A01 T02730114  RH  037%=      5-min Rain = 0
KSC1 190024Z 17008KT 27/11 A2968 RMK A01 T02720113  RH  037%=      5-min Rain = 0
KSC1 190025Z 17006KT 27/11 A2968 RMK A01 T02720114  RH  037%=      5-min Rain = 0
KSC1 190026Z 17007KT 27/11 A2968 RMK A01 T02720114  RH  037%=      5-min Rain = 0
KSC1 190027Z 17008KT 27/12 A2968 RMK A01 T02720115  RH  038%=      5-min Rain = 0
KSC1 190028Z 18009KT 27/12 A2968 RMK A01 T02720115  RH  038%=      5-min Rain = 0
KSC1 190029Z 18009KT 27/12 A2968 RMK A01 T02720116  RH  038%=      5-min Rain = 0
KSC1 190030Z 17009KT 27/12 A2968 RMK A01 T02730117  RH  038%=      5-min Rain = 0
KSC1 190031Z 18010KT 27/12 A2968 RMK A01 T02730117  RH  038%=      5-min Rain = 0
KSC1 190032Z 18010KT 27/12 A2968 RMK A01 T02730118  RH  038%=      5-min Rain = 0
KSC1 190033Z 18009KT 27/12 A2968 RMK A01 T02730117  RH  038%=      5-min Rain = 0
KSC1 190034Z 18010KT 27/12 A2968 RMK A01 T02740118  RH  038%=      5-min Rain = 0
KSC1 190035Z 18009KT 27/12 A2968 RMK A01 T02740119  RH  038%=      5-min Rain = 0
KSC1 190036Z 18011KT 27/12 A2968 RMK A01 T02740119  RH  038%=      5-min Rain = 0
KSC1 190037Z 18011KT 27/12 A2968 RMK A01 T02740119  RH  038%=      5-min Rain = 0
KSC1 190038Z 18011KT 27/12 A2968 RMK A01 T02740119  RH  038%=      5-min Rain = 0
KSC1 190039Z 18010KT 27/12 A2968 RMK A01 T02740119  RH  038%=      5-min Rain = 0
KSC1 190040Z 18010G16KT 27/12 A2968 RMK A01 T02740119  RH  038%=      5-min Rain = 0
KSC1 190041Z 18011KT 27/12 A2968 RMK A01 T02730119  RH  038%=      5-min Rain = 0
KSC1 190042Z 18009KT 27/12 A2968 RMK A01 T02740119  RH  038%=      5-min Rain = 0
KSC1 190043Z 18011KT 27/12 A2968 RMK A01 T02740119  RH  038%=      5-min Rain = 0
KSC1 190044Z 18010KT 27/12 A2968 RMK A01 T02730120  RH  038%=      5-min Rain = 0
KSC1 190045Z 18011G16KT 27/12 A2968 RMK A01 T02730120  RH  039%=      5-min Rain = 0
KSC1 190046Z 18012KT 27/12 A2968 RMK A01 T02730120  RH  039%=      5-min Rain = 0
KSC1 190047Z 17010KT 27/12 A2969 RMK A01 T02730120  RH  039%=      5-min Rain = 0
KSC1 190048Z 18012KT 27/12 A2968 RMK A01 T02720120  RH  039%=      5-min Rain = 0
KSC1 190049Z 18012KT 27/12 A2968 RMK A01 T02720120  RH  039%=      5-min Rain = 0
KSC1 190050Z 18012G17KT 27/12 A2969 RMK A01 T02720120  RH  039%=      5-min Rain = 0
KSC1 190051Z 18011KT 27/12 A2969 RMK A01 T02710120  RH  039%=      5-min Rain = 0
KSC1 190052Z 18009KT 27/12 A2969 RMK A01 T02710120  RH  039%=      5-min Rain = 0
KSC1 190053Z 18012KT 27/12 A2969 RMK A01 T02700120  RH  039%=      5-min Rain = 0
KSC1 190054Z 18012KT 27/12 A2969 RMK A01 T02690120  RH  040%=      5-min Rain = 0
KSC1 190055Z 18009KT 27/12 A2969 RMK A01 T02690121  RH  040%=      5-min Rain = 0
KSC1 190056Z 18011KT 27/12 A2969 RMK A01 T02680120  RH  040%=      5-min Rain = 0
KSC1 190057Z 18011KT 27/12 A2969 RMK A01 T02670120  RH  040%=      5-min Rain = 0
KSC1 190058Z 17010KT 27/12 A2969 RMK A01 T02670121  RH  040%=      5-min Rain = 0
KSC1 190059Z 18011KT 27/12 A2969 RMK A01 T02660121  RH  040%=      5-min Rain = 0
KSC1 190100Z 18011KT 27/12 A2969 RMK A01 T02660121  RH  041%=      5-min Rain = 0
KSC1 190101Z 18011KT 27/12 A2969 RMK A01 T02660121  RH  041%=      5-min Rain = 0
KSC1 190102Z 17011KT 27/12 A2969 RMK A01 T02650121  RH  041%=      5-min Rain = 0
KSC1 190103Z 18011KT 27/12 A2969 RMK A01 T02650121  RH  041%=      5-min Rain = 0
KSC1 190104Z 18011KT 27/12 A2969 RMK A01 T02650122  RH  041%=      5-min Rain = 0
KSC1 190105Z 17012KT 27/12 A2969 RMK A01 T02650122  RH  041%=      5-min Rain = 0
KSC1 190106Z 17011KT 26/12 A2969 RMK A01 T02640122  RH  041%=      5-min Rain = 0
KSC1 190107Z 17010KT 26/12 A2969 RMK A01 T02640122  RH  041%=      5-min Rain = 0
KSC1 190108Z 17010KT 26/12 A2969 RMK A01 T02630122  RH  041%=      5-min Rain = 0
KSC1 190109Z 17011KT 26/12 A2969 RMK A01 T02630122  RH  042%=      5-min Rain = 0
KSC1 190110Z 17009KT 26/12 A2969 RMK A01 T02630122  RH  042%=      5-min Rain = 0
KSC1 190111Z 17010KT 26/12 A2969 RMK A01 T02620122  RH  042%=      5-min Rain = 0
KSC1 190112Z 17010KT 26/12 A2969 RMK A01 T02610122  RH  042%=      5-min Rain = 0
KSC1 190113Z 16009KT 26/12 A2969 RMK A01 T02600122  RH  042%=      5-min Rain = 0
KSC1 190114Z 17008KT 26/12 A2969 RMK A01 T02590122  RH  042%=      5-min Rain = 0
KSC1 190115Z 16009KT 26/12 A2969 RMK A01 T02580122  RH  043%=      5-min Rain = 0
KSC1 190116Z 17008KT 26/12 A2969 RMK A01 T02580122  RH  043%=      5-min Rain = 0
KSC1 190117Z 17010KT 26/12 A2969 RMK A01 T02570122  RH  043%=      5-min Rain = 0
KSC1 190118Z 17009KT 26/12 A2969 RMK A01 T02570122  RH  043%=      5-min Rain = 0
KSC1 190119Z 16008G13KT 26/12 A2969 RMK A01 T02570123  RH  043%=      5-min Rain = 0
KSC1 190120Z 17010KT 26/12 A297 RMK A01 T02570122  RH  043%=      5-min Rain = 0
KSC1 190121Z 17008KT 26/12 A297 RMK A01 T02570123  RH  043%=      5-min Rain = 0
KSC1 190122Z 17010KT 26/12 A297 RMK A01 T02560123  RH  043%=      5-min Rain = 0
KSC1 190123Z 17010KT 26/12 A297 RMK A01 T02560123  RH  043%=      5-min Rain = 0
KSC1 190124Z 17009KT 26/12 A297 RMK A01 T02560123  RH  043%=      5-min Rain = 0
KSC1 190125Z 17008KT 26/12 A297 RMK A01 T02560123  RH  043%=      5-min Rain = 0
KSC1 190126Z 17007KT 26/12 A297 RMK A01 T02560123  RH  044%=      5-min Rain = 0
KSC1 190127Z 17009KT 26/12 A297 RMK A01 T02550123  RH  044%=      5-min Rain = 0
KSC1 190128Z 17009KT 26/12 A297 RMK A01 T02550123  RH  044%=      5-min Rain = 0
KSC1 190129Z 17010KT 26/12 A297 RMK A01 T02550123  RH  044%=      5-min Rain = 0
KSC1 190130Z 17008KT 26/12 A297 RMK A01 T02550124  RH  044%=      5-min Rain = 0
KSC1 190131Z 17009KT 26/12 A297 RMK A01 T02550124  RH  044%=      5-min Rain = 0
KSC1 190132Z 17009KT 26/12 A297 RMK A01 T02550124  RH  044%=      5-min Rain = 0
KSC1 190133Z 18009KT 26/12 A297 RMK A01 T02550124  RH  044%=      5-min Rain = 0
KSC1 190134Z 18010KT 26/12 A2971 RMK A01 T02550124  RH  044%=      5-min Rain = 0
KSC1 190135Z 18008KT 26/12 A2971 RMK A01 T02550124  RH  044%=      5-min Rain = 0
KSC1 190136Z 18009KT 26/12 A2971 RMK A01 T02550124  RH  044%=      5-min Rain = 0
KSC1 190137Z 18009KT 26/12 A2971 RMK A01 T02550124  RH  044%=      5-min Rain = 0
KSC1 190138Z 18008KT 26/12 A2972 RMK A01 T02550124  RH  044%=      5-min Rain = 0
KSC1 190139Z 19008KT 26/12 A2972 RMK A01 T02560124  RH  044%=      5-min Rain = 0
KSC1 190140Z 19007KT 26/12 A2972 RMK A01 T02560124  RH  044%=      5-min Rain = 0
KSC1 190141Z 20006KT 26/12 A2972 RMK A01 T02560124  RH  044%=      5-min Rain = 0
KSC1 190142Z 19005KT 26/12 A2972 RMK A01 T02560124  RH  044%=      5-min Rain = 0
KSC1 190143Z 19004KT 26/13 A2972 RMK A01 T02560125  RH  044%=      5-min Rain = 0
KSC1 190144Z 19005KT 26/13 A2972 RMK A01 T02550125  RH  045%=      5-min Rain = 0
KSC1 190145Z 18006KT 25/13 A2972 RMK A01 T02540128  RH  045%=      5-min Rain = 0
KSC1 190146Z 18007KT 25/13 A2972 RMK A01 T02530129  RH  046%=      5-min Rain = 0
KSC1 190147Z 18007KT 25/13 A2972 RMK A01 T02520128  RH  046%=      5-min Rain = 0
KSC1 190148Z 17006KT 25/13 A2972 RMK A01 T02510129  RH  047%=      5-min Rain = 0
KSC1 190149Z 18007KT 25/13 A2972 RMK A01 T02500129  RH  047%=      5-min Rain = 0
KSC1 190150Z 17007KT 25/13 A2972 RMK A01 T02490130  RH  047%=      5-min Rain = 0
KSC1 190151Z 17006KT 25/13 A2972 RMK A01 T02490130  RH  048%=      5-min Rain = 0
KSC1 190152Z 17007KT 25/13 A2972 RMK A01 T02480130  RH  048%=      5-min Rain = 0
KSC1 190153Z 17008KT 25/13 A2971 RMK A01 T02480130  RH  048%=      5-min Rain = 0
KSC1 190154Z 17008KT 25/13 A2972 RMK A01 T02470130  RH  048%=      5-min Rain = 0
KSC1 190155Z 17007KT 25/13 A2972 RMK A01 T02470130  RH  048%=      5-min Rain = 0
KSC1 190156Z 17008KT 25/13 A2972 RMK A01 T02460130  RH  048%=      5-min Rain = 0
KSC1 190157Z 17008KT 25/13 A2972 RMK A01 T02460130  RH  048%=      5-min Rain = 0
KSC1 190158Z 18010KT 25/13 A2972 RMK A01 T02470129  RH  048%=      5-min Rain = 0
KSC1 190159Z 17008KT 25/13 A2972 RMK A01 T02470128  RH  047%=      5-min Rain = 0
KSC1 190200Z 18009KT 25/13 A2972 RMK A01 T02480129  RH  047%=      5-min Rain = 0
KSC1 190201Z 17010KT 25/13 A2972 RMK A01 T02490128  RH  047%=      5-min Rain = 0
KSC1 190202Z 18009G14KT 25/13 A2972 RMK A01 T02500127  RH  047%=      5-min Rain = 0
KSC1 190203Z 18010KT 25/13 A2972 RMK A01 T02500127  RH  046%=      5-min Rain = 0
KSC1 190204Z 18009G14KT 25/13 A2972 RMK A01 T02510127  RH  046%=      5-min Rain = 0
KSC1 190205Z 18011KT 25/13 A2972 RMK A01 T02510127  RH  046%=      5-min Rain = 0
KSC1 190206Z 19010KT 25/13 A2972 RMK A01 T02520127  RH  046%=      5-min Rain = 0
KSC1 190207Z 19011KT 25/13 A2972 RMK A01 T02530127  RH  046%=      5-min Rain = 0
KSC1 190208Z 19010KT 25/13 A2972 RMK A01 T02530127  RH  045%=      5-min Rain = 0
KSC1 190209Z 19010KT 25/13 A2972 RMK A01 T02530127  RH  046%=      5-min Rain = 0
KSC1 190210Z 18008KT 25/13 A2973 RMK A01 T02530128  RH  046%=      5-min Rain = 0
KSC1 190211Z 18008KT 25/13 A2973 RMK A01 T02520128  RH  046%=      5-min Rain = 0
KSC1 190212Z 18007KT 25/13 A2973 RMK A01 T02510129  RH  047%=      5-min Rain = 0
KSC1 190213Z 20006KT 25/13 A2973 RMK A01 T02500130  RH  047%=      5-min Rain = 0
KSC1 190214Z 19008KT 25/13 A2973 RMK A01 T02490130  RH  047%=      5-min Rain = 0
KSC1 190215Z 20009KT 25/13 A2973 RMK A01 T02490129  RH  047%=      5-min Rain = 0
KSC1 190216Z 19009KT 25/13 A2973 RMK A01 T02490130  RH  047%=      5-min Rain = 0
KSC1 190217Z 18009KT 25/13 A2973 RMK A01 T02490130  RH  047%=      5-min Rain = 0
KSC1 190218Z 19010KT 25/13 A2973 RMK A01 T02490130  RH  047%=      5-min Rain = 0
KSC1 190219Z 18011KT 25/13 A2973 RMK A01 T02490129  RH  047%=      5-min Rain = 0
KSC1 190220Z 19012G17KT 25/13 A2973 RMK A01 T02500129  RH  047%=      5-min Rain = 0
KSC1 190221Z 18010KT 25/13 A2973 RMK A01 T02500129  RH  047%=      5-min Rain = 0
KSC1 190222Z 18013KT 25/13 A2973 RMK A01 T02500130  RH  047%=      5-min Rain = 0
KSC1 190223Z 18014KT 25/13 A2973 RMK A01 T02510130  RH  047%=      5-min Rain = 0
KSC1 190224Z 18014KT 25/13 A2973 RMK A01 T02510130  RH  047%=      5-min Rain = 0
KSC1 190225Z 19012KT 25/13 A2973 RMK A01 T02510131  RH  047%=      5-min Rain = 0
KSC1 190226Z 20011KT 25/13 A2973 RMK A01 T02510131  RH  047%=      5-min Rain = 0
KSC1 190227Z 21009KT 25/13 A2974 RMK A01 T02510132  RH  048%=      5-min Rain = 0
KSC1 190228Z 22011G16KT 25/13 A2974 RMK A01 T02500132  RH  048%=      5-min Rain = 0
KSC1 190229Z 23011G17KT 25/13 A2975 RMK A01 T02490132  RH  048%=      5-min Rain = 0
KSC1 190230Z 25011KT 25/13 A2976 RMK A01 T02490133  RH  048%=      5-min Rain = 0
KSC1 190231Z 24010KT 25/13 A2976 RMK A01 T02480134  RH  049%=      5-min Rain = 0
KSC1 190232Z 24010G16KT 25/14 A2976 RMK A01 T02470135  RH  050%=      5-min Rain = 0
KSC1 190233Z 24010KT 25/14 A2977 RMK A01 T02460135  RH  050%=      5-min Rain = 0
KSC1 190234Z 24013KT 25/14 A2977 RMK A01 T02460137  RH  051%=      5-min Rain = 0
KSC1 190235Z 24016G22KT 25/14 A2977 RMK A01 T02450141  RH  052%=      5-min Rain = 0
KSC1 190236Z 22021G29KT 24/15 A2978 RMK A01 T02390148  RH  056%=      5-min Rain = 0.01
KSC1 190237Z 23022G29KT 22/16 A2979 RMK A01 T02240155  RH  065%=      5-min Rain = 0.02
KSC1 190238Z 24014KT 21/16 A2979 RMK A01 T02100156  RH  071%=      5-min Rain = 0.02
KSC1 190239Z 22015G23KT 20/16 A2979 RMK A01 T02030156  RH  074%=      5-min Rain = 0.01
KSC1 190240Z 20019G27KT 20/15 A2978 RMK A01 T02000147  RH  072%=      5-min Rain = 0.01
KSC1 190241Z 21015KT 20/14 A2978 RMK A01 T01970139  RH  069%=      5-min Rain = 0.01
KSC1 190242Z 21012G18KT 20/13 A2978 RMK A01 T01960133  RH  067%=      5-min Rain = 0
KSC1 190243Z 20013G18KT 20/13 A2978 RMK A01 T01960133  RH  067%=      5-min Rain = 0
KSC1 190244Z 19012KT 20/13 A2978 RMK A01 T01960134  RH  068%=      5-min Rain = 0
KSC1 190245Z 19010KT 20/14 A2978 RMK A01 T01950136  RH  069%=      5-min Rain = 0
KSC1 190246Z 18012KT 19/14 A2978 RMK A01 T01930138  RH  070%=      5-min Rain = 0
KSC1 190247Z 18009KT 19/14 A2978 RMK A01 T01920140  RH  072%=      5-min Rain = 0
KSC1 190248Z 19009KT 19/14 A2978 RMK A01 T01910140  RH  072%=      5-min Rain = 0
KSC1 190249Z 19010KT 19/14 A2978 RMK A01 T01900141  RH  073%=      5-min Rain = 0
KSC1 190250Z 21010KT 19/14 A2979 RMK A01 T01900142  RH  073%=      5-min Rain = 0
KSC1 190251Z 19008KT 19/14 A2978 RMK A01 T01900143  RH  074%=      5-min Rain = 0.01
KSC1 190252Z 18009KT 19/14 A2978 RMK A01 T01890143  RH  074%=      5-min Rain = 0
KSC1 190253Z 17008KT 19/14 A2977 RMK A01 T01880144  RH  075%=      5-min Rain = 0
KSC1 190254Z 16009KT 19/14 A2977 RMK A01 T01880144  RH  076%=      5-min Rain = 0
KSC1 190255Z 17008KT 19/14 A2976 RMK A01 T01880144  RH  076%=      5-min Rain = 0
KSC1 190256Z 17010KT 19/15 A2976 RMK A01 T01900147  RH  076%=      5-min Rain = 0
KSC1 190257Z 17009KT 19/15 A2976 RMK A01 T01920151  RH  077%=      5-min Rain = 0
KSC1 190258Z 16009KT 19/15 A2976 RMK A01 T01940153  RH  077%=      5-min Rain = 0
KSC1 190259Z 17008KT 19/16 A2976 RMK A01 T01930155  RH  078%=      5-min Rain = 0
KSC1 190300Z 17009KT 19/16 A2976 RMK A01 T01920156  RH  079%=      5-min Rain = 0
KSC1 190301Z 18010KT 19/16 A2976 RMK A01 T01910157  RH  081%=      5-min Rain = 0
KSC1 190302Z 17008KT 19/16 A2976 RMK A01 T01910158  RH  081%=      5-min Rain = 0
KSC1 190303Z 17009KT 19/16 A2976 RMK A01 T01920158  RH  081%=      5-min Rain = 0
KSC1 190304Z 17009KT 19/16 A2976 RMK A01 T01940159  RH  080%=      5-min Rain = 0
KSC1 190305Z 17008KT 19/16 A2976 RMK A01 T01940159  RH  080%=      5-min Rain = 0
KSC1 190306Z 17008KT 19/16 A2976 RMK A01 T01940159  RH  080%=      5-min Rain = 0
KSC1 190307Z 17009KT 19/16 A2976 RMK A01 T01940159  RH  080%=      5-min Rain = 0
KSC1 190308Z 17007KT 19/16 A2976 RMK A01 T01940159  RH  080%=      5-min Rain = 0
KSC1 190309Z 16006KT 19/16 A2976 RMK A01 T01940159  RH  080%=      5-min Rain = 0
KSC1 190310Z 16006KT 19/16 A2976 RMK A01 T01930160  RH  081%=      5-min Rain = 0
KSC1 190311Z 16007KT 19/16 A2975 RMK A01 T01920160  RH  081%=      5-min Rain = 0
KSC1 190312Z 16005KT 19/16 A2975 RMK A01 T01920160  RH  082%=      5-min Rain = 0
KSC1 190313Z 16005KT 19/16 A2975 RMK A01 T01910160  RH  082%=      5-min Rain = 0
KSC1 190314Z 17004KT 19/16 A2975 RMK A01 T01900161  RH  083%=      5-min Rain = 0
KSC1 190315Z 17006KT 19/16 A2975 RMK A01 T01900161  RH  083%=      5-min Rain = 0
KSC1 190316Z 17006KT 19/16 A2975 RMK A01 T01900161  RH  084%=      5-min Rain = 0
KSC1 190317Z 17006KT 19/16 A2976 RMK A01 T01890161  RH  084%=      5-min Rain = 0
KSC1 190318Z 18006KT 19/16 A2976 RMK A01 T01890162  RH  084%=      5-min Rain = 0
KSC1 190319Z 18005KT 19/16 A2976 RMK A01 T01890162  RH  084%=      5-min Rain = 0
KSC1 190320Z 18004KT 19/16 A2975 RMK A01 T01890162  RH  084%=      5-min Rain = 0
KSC1 190321Z 17004KT 19/16 A2975 RMK A01 T01890161  RH  084%=      5-min Rain = 0
KSC1 190322Z 17005KT 19/16 A2976 RMK A01 T01890160  RH  083%=      5-min Rain = 0
KSC1 190323Z 17005KT 19/16 A2976 RMK A01 T01890158  RH  082%=      5-min Rain = 0.01
KSC1 190324Z 17006KT 19/16 A2976 RMK A01 T01900157  RH  081%=      5-min Rain = 0
KSC1 190325Z 17006KT 19/16 A2976 RMK A01 T01920158  RH  081%=      5-min Rain = 0
KSC1 190326Z 17006KT 19/16 A2976 RMK A01 T01920158  RH  081%=      5-min Rain = 0
KSC1 190327Z 17006KT 19/16 A2976 RMK A01 T01920159  RH  081%=      5-min Rain = 0
KSC1 190328Z 16008KT 19/16 A2976 RMK A01 T01910159  RH  081%=      5-min Rain = 0
KSC1 190329Z 17008KT 19/16 A2976 RMK A01 T01910159  RH  082%=      5-min Rain = 0
KSC1 190330Z 17009KT 19/16 A2976 RMK A01 T01910159  RH  082%=      5-min Rain = 0
KSC1 190331Z 17009KT 19/16 A2976 RMK A01 T01910159  RH  082%=      5-min Rain = 0
KSC1 190332Z 17008KT 19/16 A2976 RMK A01 T01910159  RH  082%=      5-min Rain = 0
KSC1 190333Z 18009KT 19/16 A2976 RMK A01 T01910158  RH  081%=      5-min Rain = 0
KSC1 190334Z 18008KT 19/16 A2976 RMK A01 T01910158  RH  081%=      5-min Rain = 0
KSC1 190335Z 18010KT 19/16 A2976 RMK A01 T01920156  RH  079%=      5-min Rain = 0
KSC1 190336Z 18009KT 19/16 A2976 RMK A01 T01940155  RH  078%=      5-min Rain = 0
KSC1 190337Z 18009KT 20/15 A2976 RMK A01 T01960154  RH  076%=      5-min Rain = 0
KSC1 190338Z 17007KT 20/15 A2976 RMK A01 T01990152  RH  074%=      5-min Rain = 0
KSC1 190339Z 17007KT 20/15 A2976 RMK A01 T02010154  RH  074%=      5-min Rain = 0
KSC1 190340Z 17009KT 20/16 A2976 RMK A01 T02010155  RH  075%=      5-min Rain = 0
KSC1 190341Z 18009KT 20/15 A2976 RMK A01 T02000154  RH  075%=      5-min Rain = 0
KSC1 190342Z 17007KT 20/15 A2976 RMK A01 T02000154  RH  075%=      5-min Rain = 0
KSC1 190343Z 18008KT 20/15 A2976 RMK A01 T02000153  RH  074%=      5-min Rain = 0
KSC1 190344Z 17007KT 20/15 A2976 RMK A01 T02010153  RH  074%=      5-min Rain = 0
KSC1 190345Z 18008KT 20/15 A2976 RMK A01 T02010153  RH  074%=      5-min Rain = 0
KSC1 190346Z 17007KT 20/15 A2976 RMK A01 T02010153  RH  074%=      5-min Rain = 0
KSC1 190347Z 17008KT 20/15 A2976 RMK A01 T02010154  RH  074%=      5-min Rain = 0
KSC1 190348Z 17008KT 20/15 A2976 RMK A01 T02000154  RH  074%=      5-min Rain = 0
KSC1 190349Z 18009KT 20/15 A2976 RMK A01 T02000154  RH  075%=      5-min Rain = 0
KSC1 190350Z 18008KT 20/15 A2976 RMK A01 T02000153  RH  075%=      5-min Rain = 0
KSC1 190351Z 18007KT 20/15 A2976 RMK A01 T02000154  RH  075%=      5-min Rain = 0
KSC1 190352Z 17008KT 20/15 A2976 RMK A01 T02000154  RH  075%=      5-min Rain = 0
KSC1 190353Z 18008KT 20/15 A2976 RMK A01 T02000154  RH  075%=      5-min Rain = 0
KSC1 190354Z 18008KT 20/15 A2976 RMK A01 T02010152  RH  073%=      5-min Rain = 0
KSC1 190355Z 18010KT 20/15 A2976 RMK A01 T02040152  RH  072%=      5-min Rain = 0
KSC1 190356Z 19009G15KT 21/15 A2976 RMK A01 T02070151  RH  070%=      5-min Rain = 0
KSC1 190357Z 18007KT 21/15 A2976 RMK A01 T02090152  RH  070%=      5-min Rain = 0
KSC1 190358Z 18010KT 21/15 A2976 RMK A01 T02100151  RH  069%=      5-min Rain = 0
KSC1 190359Z 19009KT 21/15 A2976 RMK A01 T02110150  RH  068%=      5-min Rain = 0
KSC1 190400Z 18009KT 21/15 A2976 RMK A01 T02120150  RH  068%=      5-min Rain = 0
KSC1 190401Z 18010KT 21/15 A2976 RMK A01 T02130150  RH  067%=      5-min Rain = 0
KSC1 190402Z 18011G17KT 21/15 A2976 RMK A01 T02130150  RH  067%=      5-min Rain = 0
KSC1 190403Z 19011KT 21/15 A2976 RMK A01 T02140149  RH  067%=      5-min Rain = 0
KSC1 190404Z 19009KT 21/15 A2976 RMK A01 T02140150  RH  067%=      5-min Rain = 0
KSC1 190405Z 19009KT 21/15 A2976 RMK A01 T02140149  RH  066%=      5-min Rain = 0
KSC1 190406Z 19008KT 21/15 A2977 RMK A01 T02140150  RH  067%=      5-min Rain = 0
KSC1 190407Z 19010KT 21/15 A2976 RMK A01 T02140150  RH  067%=      5-min Rain = 0
KSC1 190408Z 19010KT 21/15 A2977 RMK A01 T02130150  RH  067%=      5-min Rain = 0
KSC1 190409Z 19009KT 21/15 A2977 RMK A01 T02120150  RH  068%=      5-min Rain = 0
KSC1 190410Z 19009G14KT 21/15 A2977 RMK A01 T02120150  RH  068%=      5-min Rain = 0
KSC1 190411Z 19010KT 21/15 A2977 RMK A01 T02120150  RH  068%=      5-min Rain = 0
KSC1 190412Z 19009KT 21/15 A2977 RMK A01 T02120151  RH  068%=      5-min Rain = 0
KSC1 190413Z 19009KT 21/15 A2977 RMK A01 T02120151  RH  068%=      5-min Rain = 0
KSC1 190414Z 20010KT 21/15 A2977 RMK A01 T02120151  RH  068%=      5-min Rain = 0
KSC1 190415Z 19008KT 21/15 A2977 RMK A01 T02110151  RH  069%=      5-min Rain = 0
KSC1 190416Z 19009KT 21/15 A2977 RMK A01 T02100152  RH  069%=      5-min Rain = 0
KSC1 190417Z 19010KT 21/15 A2977 RMK A01 T02090151  RH  070%=      5-min Rain = 0
KSC1 190418Z 19009KT 21/15 A2977 RMK A01 T02080151  RH  070%=      5-min Rain = 0
KSC1 190419Z 20007KT 21/15 A2977 RMK A01 T02080151  RH  070%=      5-min Rain = 0
KSC1 190420Z 20009KT 21/15 A2977 RMK A01 T02080151  RH  070%=      5-min Rain = 0
KSC1 190421Z 19010KT 21/15 A2977 RMK A01 T02080152  RH  070%=      5-min Rain = 0
KSC1 190422Z 20007KT 21/15 A2977 RMK A01 T02070151  RH  070%=      5-min Rain = 0
KSC1 190423Z 20008KT 21/15 A2977 RMK A01 T02070152  RH  071%=      5-min Rain = 0
KSC1 190424Z 19010KT 21/15 A2977 RMK A01 T02060151  RH  071%=      5-min Rain = 0
KSC1 190425Z 19011KT 21/15 A2977 RMK A01 T02070151  RH  071%=      5-min Rain = 0
KSC1 190426Z 19011KT 21/15 A2977 RMK A01 T02070151  RH  070%=      5-min Rain = 0
KSC1 190427Z 20009KT 21/15 A2977 RMK A01 T02080151  RH  070%=      5-min Rain = 0
KSC1 190428Z 19010KT 21/15 A2977 RMK A01 T02080152  RH  070%=      5-min Rain = 0
KSC1 190429Z 19011KT 21/15 A2977 RMK A01 T02070151  RH  070%=      5-min Rain = 0
KSC1 190430Z 20010KT 21/15 A2977 RMK A01 T02080152  RH  070%=      5-min Rain = 0
KSC1 190431Z 20009KT 21/15 A2977 RMK A01 T02070152  RH  071%=      5-min Rain = 0
KSC1 190432Z 19010KT 21/15 A2977 RMK A01 T02060152  RH  071%=      5-min Rain = 0
KSC1 190433Z 19010KT 21/15 A2977 RMK A01 T02060151  RH  071%=      5-min Rain = 0
KSC1 190434Z 19009KT 21/15 A2977 RMK A01 T02070151  RH  070%=      5-min Rain = 0
KSC1 190435Z 20009KT 21/15 A2977 RMK A01 T02080151  RH  070%=      5-min Rain = 0
KSC1 190436Z 20010KT 21/15 A2977 RMK A01 T02080151  RH  070%=      5-min Rain = 0
KSC1 190437Z 20009KT 21/15 A2977 RMK A01 T02070151  RH  070%=      5-min Rain = 0
KSC1 190438Z 20009KT 21/15 A2977 RMK A01 T02070152  RH  071%=      5-min Rain = 0
KSC1 190439Z 20008KT 21/15 A2977 RMK A01 T02060152  RH  071%=      5-min Rain = 0
KSC1 190440Z 20008KT 21/15 A2977 RMK A01 T02050152  RH  072%=      5-min Rain = 0
KSC1 190441Z 20010KT 20/15 A2977 RMK A01 T02040152  RH  072%=      5-min Rain = 0
KSC1 190442Z 20010KT 20/15 A2977 RMK A01 T02030153  RH  073%=      5-min Rain = 0
KSC1 190443Z 20008KT 20/15 A2977 RMK A01 T02030153  RH  073%=      5-min Rain = 0
KSC1 190444Z 20008KT 20/15 A2977 RMK A01 T02030153  RH  073%=      5-min Rain = 0
KSC1 190445Z 20008KT 20/15 A2977 RMK A01 T02020153  RH  073%=      5-min Rain = 0
KSC1 190446Z 20009KT 20/15 A2977 RMK A01 T02020153  RH  073%=      5-min Rain = 0
KSC1 190447Z 20008KT 20/15 A2977 RMK A01 T02020153  RH  073%=      5-min Rain = 0
KSC1 190448Z 20008KT 20/15 A2977 RMK A01 T02030153  RH  073%=      5-min Rain = 0
KSC1 190449Z 20008KT 20/15 A2977 RMK A01 T02030153  RH  073%=      5-min Rain = 0
KSC1 190450Z 20008KT 20/15 A2977 RMK A01 T02030153  RH  073%=      5-min Rain = 0
KSC1 190451Z 20008KT 20/15 A2977 RMK A01 T02030153  RH  073%=      5-min Rain = 0
KSC1 190452Z 19009KT 20/15 A2978 RMK A01 T02030153  RH  073%=      5-min Rain = 0
KSC1 190453Z 20008KT 20/15 A2978 RMK A01 T02030154  RH  073%=      5-min Rain = 0
KSC1 190454Z 20008KT 20/15 A2978 RMK A01 T02040154  RH  073%=      5-min Rain = 0
KSC1 190455Z 20009KT 20/15 A2978 RMK A01 T02040154  RH  073%=      5-min Rain = 0
KSC1 190456Z 20007KT 20/15 A2978 RMK A01 T02040154  RH  073%=      5-min Rain = 0
KSC1 190457Z 21007KT 20/16 A2978 RMK A01 T02040155  RH  073%=      5-min Rain = 0
KSC1 190458Z 20007KT 20/16 A2978 RMK A01 T02030155  RH  073%=      5-min Rain = 0
KSC1 190459Z 21007KT 20/16 A2978 RMK A01 T02030155  RH  074%=      5-min Rain = 0

Page generated in 0.0786 seconds.